OMA1712 LIME-OOMS
Flight info
| Callsign | OMA1712 |
|---|---|
| Flight time | 6h 16m |
| Altitude | 35000 |
| Route | OSK1F OSKOR DCT LABIN DCT ZDA DCT GLOMY DCT UTOMO DCT DISOR UL608 FSK UN128 LMO UN127 RIKSO UP14 LAVTA UN135 NESIL UT39 TOMBI DCT BONEK M601 BALMA/N0453F370 UR655 CAK UN310 LATEB N310 BASEM R785 RASLI P559 GADLI T503 KSA M440 SITER DCT KATIT DCT MIDGU M717 PUTSO N685 LAKLU LAKL1B |
| Aircraft | A21N/M-SDE3FGHIRWY/LB1 |
Departure
| Time | 2026-04-29 14:03 |
|---|---|
| Airport | Il Caravaggio International Airport (LIME) |
Arrival
| Time | 2026-04-29 20:19 |
|---|---|
| Airport | Muscat International Airport (OOMS) |
| Time | Latitude | Longitude | Altitude | Speed | Heading |
|---|---|---|---|---|---|
| 2026-04-29 13:18 | 45.66630 | 9.69984 | 797 ft | 0 kts | 197° |
| 2026-04-29 13:53 | 45.66666 | 9.70000 | 797 ft | 7 kts | 197° |
| 2026-04-29 13:53 | 45.66711 | 9.70020 | 797 ft | 7 kts | 195° |
| 2026-04-29 13:53 | 45.66743 | 9.69988 | 797 ft | 0 kts | 104° |
| 2026-04-29 13:57 | 45.66742 | 9.69991 | 797 ft | 2 kts | 104° |
| 2026-04-29 13:57 | 45.66736 | 9.70022 | 797 ft | 5 kts | 105° |
| 2026-04-29 13:57 | 45.66724 | 9.70087 | 797 ft | 9 kts | 105° |
| 2026-04-29 13:57 | 45.66712 | 9.70150 | 797 ft | 11 kts | 106° |
| 2026-04-29 13:58 | 45.66680 | 9.70326 | 797 ft | 16 kts | 105° |
| 2026-04-29 13:58 | 45.66648 | 9.70497 | 797 ft | 20 kts | 104° |
| 2026-04-29 13:58 | 45.66610 | 9.70701 | 797 ft | 21 kts | 104° |
| 2026-04-29 13:58 | 45.66573 | 9.70902 | 797 ft | 20 kts | 105° |
| 2026-04-29 13:59 | 45.66538 | 9.71090 | 797 ft | 19 kts | 109° |
| 2026-04-29 13:59 | 45.66491 | 9.71266 | 797 ft | 20 kts | 106° |
| 2026-04-29 13:59 | 45.66450 | 9.71477 | 797 ft | 23 kts | 106° |
| 2026-04-29 13:59 | 45.66444 | 9.71655 | 797 ft | 17 kts | 75° |
| 2026-04-29 14:00 | 45.66471 | 9.71815 | 797 ft | 16 kts | 84° |
| 2026-04-29 14:00 | 45.66449 | 9.71961 | 797 ft | 14 kts | 105° |
| 2026-04-29 14:00 | 45.66425 | 9.72092 | 797 ft | 13 kts | 105° |
| 2026-04-29 14:00 | 45.66403 | 9.72212 | 797 ft | 13 kts | 104° |
| 2026-04-29 14:01 | 45.66382 | 9.72333 | 797 ft | 12 kts | 104° |
| 2026-04-29 14:01 | 45.66366 | 9.72453 | 797 ft | 12 kts | 87° |
| 2026-04-29 14:01 | 45.66377 | 9.72565 | 797 ft | 9 kts | 52° |
| 2026-04-29 14:01 | 45.66406 | 9.72584 | 797 ft | 4 kts | 18° |
| 2026-04-29 14:02 | 45.66434 | 9.72581 | 797 ft | 5 kts | 302° |
| 2026-04-29 14:02 | 45.66444 | 9.72528 | 797 ft | 12 kts | 285° |
| 2026-04-29 14:02 | 45.66522 | 9.72109 | 797 ft | 74 kts | 284° |
| 2026-04-29 14:02 | 45.66703 | 9.71134 | 797 ft | 125 kts | 284° |
| 2026-04-29 14:03 | 45.66961 | 9.69755 | 814 ft | 159 kts | 284° |
| 2026-04-29 14:03 | 45.67246 | 9.68253 | 1176 ft | 155 kts | 284° |
| 2026-04-29 14:03 | 45.67233 | 9.66729 | 1480 ft | 157 kts | 248° |
| 2026-04-29 14:03 | 45.66555 | 9.65506 | 1774 ft | 157 kts | 224° |
| 2026-04-29 14:04 | 45.65761 | 9.64422 | 2241 ft | 159 kts | 223° |
| 2026-04-29 14:04 | 45.64934 | 9.63305 | 2512 ft | 172 kts | 223° |
| 2026-04-29 14:04 | 45.64013 | 9.62068 | 2662 ft | 186 kts | 223° |
| 2026-04-29 14:04 | 45.63082 | 9.60825 | 3177 ft | 184 kts | 223° |
| 2026-04-29 14:05 | 45.62144 | 9.59573 | 3571 ft | 188 kts | 224° |
| 2026-04-29 14:05 | 45.61163 | 9.58204 | 3794 ft | 209 kts | 225° |
| 2026-04-29 14:05 | 45.60128 | 9.56720 | 4306 ft | 210 kts | 225° |
| 2026-04-29 14:05 | 45.58998 | 9.55374 | 4803 ft | 216 kts | 207° |
| 2026-04-29 14:06 | 45.57540 | 9.54960 | 5316 ft | 215 kts | 176° |
| 2026-04-29 14:06 | 45.56137 | 9.55671 | 5781 ft | 218 kts | 146° |
| 2026-04-29 14:06 | 45.55176 | 9.57321 | 6237 ft | 219 kts | 115° |
| 2026-04-29 14:06 | 45.54935 | 9.59443 | 6677 ft | 220 kts | 84° |
| 2026-04-29 14:07 | 45.55484 | 9.61465 | 7102 ft | 222 kts | 53° |
| 2026-04-29 14:07 | 45.56576 | 9.63013 | 7588 ft | 221 kts | 47° |
| 2026-04-29 14:07 | 45.57585 | 9.64703 | 8024 ft | 227 kts | 49° |
| 2026-04-29 14:07 | 45.58672 | 9.66516 | 8098 ft | 253 kts | 49° |
| 2026-04-29 14:08 | 45.59876 | 9.68501 | 8209 ft | 276 kts | 48° |
| 2026-04-29 14:08 | 45.61167 | 9.70616 | 8678 ft | 282 kts | 48° |
| 2026-04-29 14:08 | 45.62461 | 9.72731 | 9336 ft | 285 kts | 48° |
| 2026-04-29 14:08 | 45.63753 | 9.74909 | 9901 ft | 289 kts | 54° |
| 2026-04-29 14:09 | 45.64636 | 9.77510 | 10374 ft | 298 kts | 73° |
| 2026-04-29 14:09 | 45.64891 | 9.80538 | 10472 ft | 319 kts | 89° |
| 2026-04-29 14:09 | 45.64930 | 9.83825 | 10555 ft | 342 kts | 89° |
| 2026-04-29 14:09 | 45.64952 | 9.87224 | 11045 ft | 348 kts | 90° |
| 2026-04-29 14:10 | 45.64964 | 9.90742 | 11677 ft | 351 kts | 90° |
| 2026-04-29 14:10 | 45.64968 | 9.94211 | 12256 ft | 355 kts | 90° |
| 2026-04-29 14:10 | 45.64967 | 9.97804 | 12850 ft | 359 kts | 91° |
| 2026-04-29 14:10 | 45.64962 | 10.01346 | 13405 ft | 363 kts | 91° |
| 2026-04-29 14:11 | 45.64954 | 10.04985 | 13962 ft | 367 kts | 91° |
| 2026-04-29 14:11 | 45.64944 | 10.08654 | 14507 ft | 371 kts | 91° |
| 2026-04-29 14:11 | 45.64883 | 10.12359 | 15036 ft | 374 kts | 95° |
| 2026-04-29 14:11 | 45.64495 | 10.16044 | 15562 ft | 377 kts | 104° |
| 2026-04-29 14:12 | 45.63806 | 10.19677 | 16082 ft | 380 kts | 107° |
| 2026-04-29 14:12 | 45.63324 | 10.22091 | 16412 ft | 383 kts | 107° |
| 2026-04-29 14:12 | 45.62322 | 10.26969 | 17077 ft | 388 kts | 108° |
| 2026-04-29 14:12 | 45.61801 | 10.29471 | 17407 ft | 390 kts | 108° |
| 2026-04-29 14:13 | 45.60764 | 10.34423 | 18030 ft | 396 kts | 108° |
| 2026-04-29 14:13 | 45.59969 | 10.38204 | 18511 ft | 398 kts | 108° |
| 2026-04-29 14:13 | 45.59429 | 10.40762 | 18864 ft | 399 kts | 108° |
| 2026-04-29 14:13 | 45.58626 | 10.44560 | 19372 ft | 401 kts | 107° |
| 2026-04-29 14:14 | 45.57815 | 10.48388 | 19800 ft | 404 kts | 107° |
| 2026-04-29 14:14 | 45.57008 | 10.52187 | 20234 ft | 406 kts | 107° |
| 2026-04-29 14:14 | 45.56184 | 10.56060 | 20653 ft | 409 kts | 107° |
| 2026-04-29 14:14 | 45.55354 | 10.59948 | 21060 ft | 411 kts | 107° |
| 2026-04-29 14:15 | 45.54517 | 10.63863 | 21456 ft | 413 kts | 107° |
| 2026-04-29 14:15 | 45.53675 | 10.67795 | 21840 ft | 415 kts | 107° |
| 2026-04-29 14:15 | 45.52825 | 10.71749 | 22212 ft | 418 kts | 107° |
| 2026-04-29 14:15 | 45.51970 | 10.75722 | 22577 ft | 420 kts | 107° |
| 2026-04-29 14:16 | 45.51111 | 10.79709 | 22927 ft | 422 kts | 107° |
| 2026-04-29 14:16 | 45.50257 | 10.83662 | 23253 ft | 424 kts | 107° |
| 2026-04-29 14:16 | 45.49382 | 10.87701 | 23563 ft | 426 kts | 107° |
| 2026-04-29 14:16 | 45.48504 | 10.91753 | 23862 ft | 429 kts | 107° |
| 2026-04-29 14:17 | 45.47619 | 10.95822 | 24146 ft | 431 kts | 107° |
| 2026-04-29 14:17 | 45.46729 | 10.99911 | 24435 ft | 434 kts | 107° |
| 2026-04-29 14:17 | 45.45830 | 11.04028 | 24690 ft | 436 kts | 108° |
| 2026-04-29 14:17 | 45.44925 | 11.08164 | 24958 ft | 438 kts | 108° |
| 2026-04-29 14:18 | 45.44015 | 11.12320 | 25207 ft | 441 kts | 108° |
| 2026-04-29 14:18 | 45.43097 | 11.16501 | 25454 ft | 443 kts | 108° |
| 2026-04-29 14:18 | 45.42174 | 11.20695 | 25691 ft | 445 kts | 108° |
| 2026-04-29 14:18 | 45.41245 | 11.24908 | 25923 ft | 447 kts | 108° |
| 2026-04-29 14:19 | 45.40307 | 11.29151 | 26150 ft | 449 kts | 108° |
| 2026-04-29 14:19 | 45.39366 | 11.33402 | 26375 ft | 451 kts | 108° |
| 2026-04-29 14:19 | 45.38419 | 11.37668 | 26594 ft | 453 kts | 108° |
| 2026-04-29 14:19 | 45.37478 | 11.41901 | 26770 ft | 456 kts | 108° |
| 2026-04-29 14:20 | 45.36516 | 11.46215 | 27009 ft | 456 kts | 108° |
| 2026-04-29 14:20 | 45.35553 | 11.50524 | 27212 ft | 458 kts | 108° |
| 2026-04-29 14:20 | 45.34586 | 11.54843 | 27416 ft | 459 kts | 108° |
| 2026-04-29 14:20 | 45.33613 | 11.59180 | 27613 ft | 461 kts | 108° |
| 2026-04-29 14:21 | 45.32636 | 11.63525 | 27805 ft | 462 kts | 108° |
| 2026-04-29 14:21 | 45.31655 | 11.67881 | 27993 ft | 464 kts | 108° |
| 2026-04-29 14:21 | 45.30670 | 11.72246 | 28178 ft | 465 kts | 108° |
| 2026-04-29 14:21 | 45.29681 | 11.76620 | 28361 ft | 466 kts | 108° |
| 2026-04-29 14:22 | 45.28684 | 11.81014 | 28521 ft | 468 kts | 108° |
| 2026-04-29 14:22 | 45.27697 | 11.85360 | 28692 ft | 469 kts | 108° |
| 2026-04-29 14:22 | 45.26693 | 11.89774 | 28865 ft | 470 kts | 108° |
| 2026-04-29 14:22 | 45.25682 | 11.94207 | 29025 ft | 472 kts | 108° |
| 2026-04-29 14:23 | 45.24664 | 11.98658 | 29188 ft | 473 kts | 108° |
| 2026-04-29 14:23 | 45.23645 | 12.03110 | 29344 ft | 474 kts | 108° |
| 2026-04-29 14:23 | 45.22620 | 12.07575 | 29498 ft | 476 kts | 108° |
| 2026-04-29 14:23 | 45.21595 | 12.12035 | 29649 ft | 477 kts | 108° |
| 2026-04-29 14:24 | 45.20562 | 12.16516 | 29794 ft | 478 kts | 109° |
| 2026-04-29 14:24 | 45.19536 | 12.20957 | 29944 ft | 480 kts | 109° |
| 2026-04-29 14:24 | 45.18494 | 12.25460 | 30057 ft | 482 kts | 108° |
| 2026-04-29 14:24 | 45.17445 | 12.29981 | 30204 ft | 483 kts | 108° |
| 2026-04-29 14:25 | 45.16395 | 12.34501 | 30363 ft | 483 kts | 108° |
| 2026-04-29 14:25 | 45.15340 | 12.39035 | 30501 ft | 485 kts | 109° |
| 2026-04-29 14:25 | 45.14282 | 12.43569 | 30647 ft | 485 kts | 109° |
| 2026-04-29 14:25 | 45.13218 | 12.48119 | 30786 ft | 486 kts | 109° |
| 2026-04-29 14:26 | 45.11076 | 12.57250 | 31010 ft | 490 kts | 109° |
| 2026-04-29 14:26 | 45.10001 | 12.61817 | 31136 ft | 491 kts | 109° |
| 2026-04-29 14:26 | 45.08917 | 12.66415 | 31251 ft | 492 kts | 109° |
| 2026-04-29 14:27 | 45.07848 | 12.70942 | 31398 ft | 492 kts | 109° |
| 2026-04-29 14:27 | 45.06746 | 12.75593 | 31564 ft | 492 kts | 109° |
| 2026-04-29 14:27 | 45.05672 | 12.80120 | 31724 ft | 492 kts | 109° |
| 2026-04-29 14:28 | 45.03490 | 12.89290 | 32040 ft | 492 kts | 109° |
| 2026-04-29 14:28 | 45.02395 | 12.93874 | 32200 ft | 492 kts | 109° |
| 2026-04-29 14:28 | 45.01301 | 12.98448 | 32359 ft | 491 kts | 109° |
| 2026-04-29 14:28 | 45.00203 | 13.03029 | 32518 ft | 491 kts | 109° |
| 2026-04-29 14:29 | 44.99105 | 13.07599 | 32676 ft | 491 kts | 109° |
| 2026-04-29 14:29 | 44.97754 | 13.12014 | 32811 ft | 490 kts | 118° |
| 2026-04-29 14:29 | 44.96149 | 13.16256 | 33003 ft | 489 kts | 119° |
| 2026-04-29 14:29 | 44.94543 | 13.20490 | 33144 ft | 489 kts | 119° |
| 2026-04-29 14:30 | 44.92940 | 13.24715 | 33296 ft | 488 kts | 119° |
| 2026-04-29 14:30 | 44.91359 | 13.28882 | 33450 ft | 488 kts | 119° |
| 2026-04-29 14:30 | 44.89755 | 13.33107 | 33601 ft | 488 kts | 119° |
| 2026-04-29 14:30 | 44.88148 | 13.37338 | 33749 ft | 487 kts | 119° |
| 2026-04-29 14:31 | 44.86548 | 13.41546 | 33895 ft | 487 kts | 119° |
| 2026-04-29 14:31 | 44.84944 | 13.45759 | 34040 ft | 487 kts | 119° |
| 2026-04-29 14:31 | 44.83340 | 13.49964 | 34183 ft | 486 kts | 119° |
| 2026-04-29 14:31 | 44.81736 | 13.54165 | 34325 ft | 486 kts | 119° |
| 2026-04-29 14:32 | 44.80153 | 13.58304 | 34467 ft | 486 kts | 119° |
| 2026-04-29 14:32 | 44.78546 | 13.62497 | 34612 ft | 486 kts | 120° |
| 2026-04-29 14:32 | 44.76942 | 13.66679 | 34790 ft | 484 kts | 120° |
| 2026-04-29 14:32 | 44.75342 | 13.70842 | 34996 ft | 485 kts | 120° |
| 2026-04-29 14:33 | 44.73729 | 13.75030 | 35059 ft | 487 kts | 120° |
| 2026-04-29 14:33 | 44.70501 | 13.83396 | 35080 ft | 485 kts | 120° |
| 2026-04-29 14:34 | 44.67297 | 13.91672 | 35081 ft | 485 kts | 120° |
| 2026-04-29 14:34 | 44.64067 | 13.99989 | 35081 ft | 485 kts | 120° |
| 2026-04-29 14:35 | 44.60824 | 14.08315 | 35081 ft | 485 kts | 120° |
| 2026-04-29 14:35 | 44.57574 | 14.16633 | 35081 ft | 486 kts | 120° |
| 2026-04-29 14:36 | 44.54322 | 14.24932 | 35081 ft | 486 kts | 120° |
| 2026-04-29 14:36 | 44.51083 | 14.33173 | 35081 ft | 486 kts | 120° |
| 2026-04-29 14:37 | 44.47815 | 14.41460 | 35081 ft | 486 kts | 120° |
| 2026-04-29 14:37 | 44.44543 | 14.49732 | 35081 ft | 484 kts | 120° |
| 2026-04-29 14:38 | 44.41268 | 14.57989 | 35078 ft | 486 kts | 120° |
| 2026-04-29 14:38 | 44.37977 | 14.66263 | 35073 ft | 487 kts | 120° |
| 2026-04-29 14:39 | 44.34677 | 14.74534 | 35072 ft | 487 kts | 120° |
| 2026-04-29 14:39 | 44.31372 | 14.82793 | 35072 ft | 487 kts | 120° |
| 2026-04-29 14:40 | 44.28063 | 14.91038 | 35071 ft | 487 kts | 120° |
| 2026-04-29 14:40 | 44.24745 | 14.99280 | 35071 ft | 488 kts | 120° |
| 2026-04-29 14:41 | 44.21420 | 15.07517 | 35069 ft | 487 kts | 120° |
| 2026-04-29 14:41 | 44.18108 | 15.15695 | 35066 ft | 487 kts | 120° |
| 2026-04-29 14:42 | 44.14767 | 15.23924 | 35061 ft | 487 kts | 120° |
| 2026-04-29 14:42 | 44.11423 | 15.32134 | 35057 ft | 487 kts | 120° |
| 2026-04-29 14:43 | 44.08480 | 15.40612 | 35056 ft | 487 kts | 108° |
| 2026-04-29 14:43 | 44.06326 | 15.49557 | 35058 ft | 487 kts | 107° |
| 2026-04-29 14:44 | 44.04309 | 15.58549 | 35061 ft | 487 kts | 107° |
| 2026-04-29 14:44 | 44.02306 | 15.67566 | 35066 ft | 488 kts | 107° |
| 2026-04-29 14:45 | 44.00319 | 15.76505 | 35072 ft | 488 kts | 107° |
| 2026-04-29 14:45 | 43.98310 | 15.85515 | 35075 ft | 488 kts | 107° |
| 2026-04-29 14:46 | 43.96295 | 15.94513 | 35078 ft | 488 kts | 107° |
| 2026-04-29 14:46 | 43.94273 | 16.03506 | 35079 ft | 488 kts | 107° |
| 2026-04-29 14:47 | 43.92242 | 16.12496 | 35077 ft | 488 kts | 107° |
| 2026-04-29 14:47 | 43.90218 | 16.21417 | 35076 ft | 488 kts | 107° |
| 2026-04-29 14:48 | 43.88174 | 16.30385 | 35074 ft | 488 kts | 107° |
| 2026-04-29 14:48 | 43.86130 | 16.39326 | 35058 ft | 484 kts | 107° |
| 2026-04-29 14:49 | 43.84084 | 16.48222 | 35049 ft | 484 kts | 107° |
| 2026-04-29 14:49 | 43.82030 | 16.57124 | 35043 ft | 486 kts | 107° |
| 2026-04-29 14:50 | 43.79974 | 16.65997 | 35039 ft | 486 kts | 108° |
| 2026-04-29 14:50 | 43.77898 | 16.74918 | 35034 ft | 485 kts | 108° |
| 2026-04-29 14:51 | 43.75826 | 16.83786 | 35028 ft | 484 kts | 108° |
| 2026-04-29 14:51 | 43.73749 | 16.92641 | 35022 ft | 483 kts | 108° |
| 2026-04-29 14:52 | 43.71666 | 17.01483 | 35020 ft | 483 kts | 108° |
| 2026-04-29 14:52 | 43.69577 | 17.10316 | 35021 ft | 483 kts | 108° |
| 2026-04-29 14:53 | 43.67494 | 17.19094 | 35026 ft | 484 kts | 108° |
| 2026-04-29 14:53 | 43.65387 | 17.27931 | 35029 ft | 485 kts | 108° |
| 2026-04-29 14:54 | 43.63269 | 17.36780 | 35026 ft | 485 kts | 108° |
| 2026-04-29 14:54 | 43.61142 | 17.45637 | 35027 ft | 486 kts | 108° |
| 2026-04-29 14:55 | 43.59005 | 17.54494 | 35051 ft | 487 kts | 108° |
| 2026-04-29 14:55 | 43.56869 | 17.63316 | 35064 ft | 488 kts | 108° |
| 2026-04-29 14:56 | 43.54074 | 17.71824 | 35077 ft | 489 kts | 119° |
| 2026-04-29 14:56 | 43.50762 | 17.80020 | 35068 ft | 488 kts | 120° |
| 2026-04-29 14:57 | 43.47456 | 17.88187 | 35043 ft | 486 kts | 120° |
| 2026-04-29 14:57 | 43.44176 | 17.96274 | 35039 ft | 487 kts | 120° |
| 2026-04-29 14:58 | 43.40868 | 18.04410 | 35040 ft | 487 kts | 120° |
| 2026-04-29 14:58 | 43.37550 | 18.12544 | 35043 ft | 487 kts | 120° |
| 2026-04-29 14:59 | 43.34228 | 18.20662 | 35048 ft | 487 kts | 120° |
| 2026-04-29 14:59 | 43.30916 | 18.28728 | 35052 ft | 488 kts | 120° |
| 2026-04-29 15:00 | 43.27575 | 18.36841 | 35056 ft | 488 kts | 120° |
| 2026-04-29 15:00 | 43.24227 | 18.44947 | 35060 ft | 489 kts | 120° |
| 2026-04-29 15:01 | 43.20867 | 18.53056 | 35064 ft | 489 kts | 120° |
| 2026-04-29 15:01 | 43.18062 | 18.59809 | 35067 ft | 490 kts | 120° |
| 2026-04-29 15:02 | 43.14681 | 18.67926 | 35071 ft | 490 kts | 120° |
| 2026-04-29 15:02 | 43.11292 | 18.76041 | 35078 ft | 490 kts | 120° |
| 2026-04-29 15:03 | 43.07900 | 18.84139 | 35081 ft | 491 kts | 120° |
| 2026-04-29 15:03 | 43.04500 | 18.92231 | 35081 ft | 491 kts | 120° |
| 2026-04-29 15:04 | 43.01107 | 19.00286 | 35080 ft | 491 kts | 120° |
| 2026-04-29 15:04 | 42.97694 | 19.08365 | 35080 ft | 491 kts | 121° |
| 2026-04-29 15:05 | 42.94269 | 19.16450 | 35077 ft | 490 kts | 121° |
| 2026-04-29 15:05 | 42.90849 | 19.24499 | 35073 ft | 489 kts | 121° |
| 2026-04-29 15:06 | 42.87449 | 19.32480 | 35071 ft | 490 kts | 121° |
| 2026-04-29 15:06 | 42.84022 | 19.40503 | 35069 ft | 490 kts | 121° |
| 2026-04-29 15:07 | 42.80589 | 19.48517 | 35066 ft | 489 kts | 121° |
| 2026-04-29 15:07 | 42.77154 | 19.56514 | 35065 ft | 489 kts | 121° |
| 2026-04-29 15:08 | 42.73727 | 19.64469 | 35057 ft | 487 kts | 121° |
| 2026-04-29 15:08 | 42.70288 | 19.72432 | 35058 ft | 488 kts | 121° |
| 2026-04-29 15:09 | 42.66867 | 19.80330 | 35059 ft | 488 kts | 121° |
| 2026-04-29 15:09 | 42.63342 | 19.88218 | 35060 ft | 488 kts | 123° |
| 2026-04-29 15:10 | 42.59699 | 19.96009 | 35059 ft | 488 kts | 123° |
| 2026-04-29 15:10 | 42.56111 | 20.03767 | 35066 ft | 489 kts | 123° |
| 2026-04-29 15:11 | 42.52503 | 20.11579 | 35068 ft | 488 kts | 123° |
| 2026-04-29 15:11 | 42.48885 | 20.19399 | 35079 ft | 490 kts | 122° |
| 2026-04-29 15:12 | 42.45265 | 20.27213 | 35081 ft | 488 kts | 123° |
| 2026-04-29 15:12 | 42.41679 | 20.34934 | 35057 ft | 482 kts | 123° |
| 2026-04-29 15:13 | 42.38096 | 20.42625 | 35054 ft | 483 kts | 123° |
| 2026-04-29 15:13 | 42.34530 | 20.50257 | 35052 ft | 483 kts | 123° |
| 2026-04-29 15:14 | 42.30929 | 20.57944 | 35052 ft | 484 kts | 123° |
| 2026-04-29 15:14 | 42.27323 | 20.65622 | 35053 ft | 484 kts | 123° |
| 2026-04-29 15:15 | 42.23709 | 20.73297 | 35056 ft | 484 kts | 123° |
| 2026-04-29 15:15 | 42.20087 | 20.80969 | 35060 ft | 485 kts | 123° |
| 2026-04-29 15:16 | 42.16454 | 20.88643 | 35065 ft | 485 kts | 123° |
| 2026-04-29 15:16 | 42.12836 | 20.96265 | 35071 ft | 486 kts | 123° |
| 2026-04-29 15:17 | 42.09189 | 21.03929 | 35072 ft | 486 kts | 123° |
| 2026-04-29 15:17 | 42.05537 | 21.11584 | 35069 ft | 485 kts | 123° |
| 2026-04-29 15:18 | 42.01885 | 21.19218 | 35063 ft | 485 kts | 123° |
| 2026-04-29 15:18 | 41.98226 | 21.26847 | 35056 ft | 485 kts | 123° |
| 2026-04-29 15:19 | 41.94594 | 21.34402 | 35042 ft | 483 kts | 123° |
| 2026-04-29 15:19 | 41.90952 | 21.41960 | 35027 ft | 481 kts | 123° |
| 2026-04-29 15:20 | 41.87315 | 21.49486 | 35017 ft | 480 kts | 123° |
| 2026-04-29 15:20 | 41.83663 | 21.57024 | 35013 ft | 480 kts | 123° |
| 2026-04-29 15:21 | 41.80011 | 21.64545 | 35016 ft | 481 kts | 123° |
| 2026-04-29 15:21 | 41.76346 | 21.72073 | 35024 ft | 483 kts | 123° |
| 2026-04-29 15:22 | 41.72690 | 21.79563 | 35032 ft | 484 kts | 123° |
| 2026-04-29 15:22 | 41.68986 | 21.87132 | 35039 ft | 485 kts | 123° |
| 2026-04-29 15:23 | 41.65284 | 21.94680 | 35045 ft | 485 kts | 124° |
| 2026-04-29 15:23 | 41.61579 | 22.02214 | 35050 ft | 485 kts | 124° |
| 2026-04-29 15:24 | 41.57868 | 22.09742 | 35053 ft | 485 kts | 124° |
| 2026-04-29 15:24 | 41.54174 | 22.17216 | 35056 ft | 485 kts | 124° |
| 2026-04-29 15:25 | 41.50456 | 22.24721 | 35058 ft | 484 kts | 124° |
| 2026-04-29 15:25 | 41.46739 | 22.32205 | 35060 ft | 484 kts | 124° |
| 2026-04-29 15:26 | 41.43012 | 22.39690 | 35062 ft | 484 kts | 124° |
| 2026-04-29 15:26 | 41.39285 | 22.47159 | 35063 ft | 483 kts | 124° |
| 2026-04-29 15:27 | 41.35569 | 22.54586 | 35077 ft | 485 kts | 124° |
| 2026-04-29 15:27 | 41.31818 | 22.62064 | 35081 ft | 485 kts | 124° |
| 2026-04-29 15:28 | 41.28066 | 22.69527 | 35081 ft | 485 kts | 124° |
| 2026-04-29 15:28 | 41.24229 | 22.76898 | 35077 ft | 483 kts | 130° |
| 2026-04-29 15:29 | 41.19870 | 22.83699 | 35081 ft | 483 kts | 131° |
| 2026-04-29 15:30 | 41.11139 | 22.97257 | 35081 ft | 484 kts | 131° |
| 2026-04-29 15:30 | 41.07179 | 23.04487 | 35082 ft | 486 kts | 124° |
| 2026-04-29 15:31 | 41.03413 | 23.11919 | 35081 ft | 485 kts | 124° |
| 2026-04-29 15:31 | 40.99673 | 23.19309 | 35081 ft | 485 kts | 124° |
| 2026-04-29 15:32 | 40.95905 | 23.26723 | 35081 ft | 485 kts | 124° |
| 2026-04-29 15:32 | 40.92120 | 23.34102 | 35081 ft | 485 kts | 124° |
| 2026-04-29 15:33 | 40.88334 | 23.41480 | 35081 ft | 484 kts | 124° |
| 2026-04-29 15:33 | 40.84545 | 23.48862 | 35081 ft | 485 kts | 124° |
| 2026-04-29 15:34 | 40.80762 | 23.56225 | 35081 ft | 485 kts | 124° |
| 2026-04-29 15:34 | 40.76969 | 23.63597 | 35081 ft | 485 kts | 124° |
| 2026-04-29 15:35 | 40.73173 | 23.70964 | 35081 ft | 485 kts | 124° |
| 2026-04-29 15:35 | 40.69389 | 23.78294 | 35081 ft | 486 kts | 124° |
| 2026-04-29 15:36 | 40.65583 | 23.85652 | 35081 ft | 486 kts | 124° |
| 2026-04-29 15:36 | 40.61772 | 23.93006 | 35081 ft | 486 kts | 124° |
| 2026-04-29 15:37 | 40.57939 | 24.00332 | 35081 ft | 486 kts | 125° |
| 2026-04-29 15:37 | 40.54112 | 24.07579 | 35081 ft | 485 kts | 125° |
| 2026-04-29 15:38 | 40.50268 | 24.14867 | 35081 ft | 485 kts | 125° |
| 2026-04-29 15:38 | 40.46419 | 24.22164 | 35081 ft | 485 kts | 125° |
| 2026-04-29 15:39 | 40.42579 | 24.29445 | 35081 ft | 485 kts | 125° |
| 2026-04-29 15:39 | 40.38744 | 24.36710 | 35081 ft | 484 kts | 125° |
| 2026-04-29 15:40 | 40.34911 | 24.43961 | 35081 ft | 484 kts | 125° |
| 2026-04-29 15:40 | 40.31071 | 24.51216 | 35081 ft | 484 kts | 125° |
| 2026-04-29 15:41 | 40.27258 | 24.58408 | 35081 ft | 484 kts | 125° |
| 2026-04-29 15:41 | 40.23409 | 24.65654 | 35081 ft | 483 kts | 125° |
| 2026-04-29 15:42 | 40.19178 | 24.72458 | 35085 ft | 482 kts | 136° |
| 2026-04-29 15:42 | 40.14441 | 24.78679 | 35081 ft | 482 kts | 136° |
| 2026-04-29 15:43 | 40.09708 | 24.84813 | 35081 ft | 482 kts | 136° |
| 2026-04-29 15:43 | 40.04938 | 24.90968 | 35081 ft | 482 kts | 137° |
| 2026-04-29 15:44 | 40.00155 | 24.97126 | 35081 ft | 482 kts | 137° |
| 2026-04-29 15:44 | 39.95378 | 25.03264 | 35082 ft | 482 kts | 137° |
| 2026-04-29 15:45 | 39.90626 | 25.09352 | 35082 ft | 481 kts | 137° |
| 2026-04-29 15:45 | 39.85844 | 25.15462 | 35082 ft | 481 kts | 137° |
| 2026-04-29 15:46 | 39.81064 | 25.21553 | 35081 ft | 481 kts | 137° |
| 2026-04-29 15:46 | 39.76281 | 25.27634 | 35081 ft | 481 kts | 137° |
| 2026-04-29 15:47 | 39.71491 | 25.33712 | 35081 ft | 481 kts | 137° |
| 2026-04-29 15:47 | 39.66702 | 25.39774 | 35081 ft | 481 kts | 137° |
| 2026-04-29 15:48 | 39.61901 | 25.45837 | 35081 ft | 481 kts | 137° |
| 2026-04-29 15:48 | 39.57102 | 25.51886 | 35081 ft | 481 kts | 137° |
| 2026-04-29 15:49 | 39.52326 | 25.57894 | 35081 ft | 481 kts | 137° |
| 2026-04-29 15:49 | 39.48319 | 25.62925 | 35081 ft | 481 kts | 137° |
| 2026-04-29 15:50 | 39.43502 | 25.68961 | 35081 ft | 482 kts | 137° |
| 2026-04-29 15:50 | 39.38689 | 25.74980 | 35081 ft | 482 kts | 137° |
| 2026-04-29 15:51 | 39.33860 | 25.81007 | 35077 ft | 482 kts | 137° |
| 2026-04-29 15:51 | 39.29033 | 25.87019 | 35075 ft | 482 kts | 137° |
| 2026-04-29 15:52 | 39.24223 | 25.92997 | 35076 ft | 482 kts | 137° |
| 2026-04-29 15:52 | 39.19388 | 25.98993 | 35076 ft | 482 kts | 137° |
| 2026-04-29 15:53 | 39.14548 | 26.04984 | 35077 ft | 482 kts | 137° |
| 2026-04-29 15:53 | 39.09704 | 26.10969 | 35078 ft | 482 kts | 137° |
| 2026-04-29 15:54 | 39.04856 | 26.16946 | 35076 ft | 482 kts | 137° |
| 2026-04-29 15:54 | 39.00002 | 26.22918 | 35074 ft | 482 kts | 137° |
| 2026-04-29 15:55 | 38.95179 | 26.28839 | 35071 ft | 482 kts | 138° |
| 2026-04-29 15:55 | 38.90318 | 26.34796 | 35067 ft | 482 kts | 138° |
| 2026-04-29 15:56 | 38.85647 | 26.40975 | 35061 ft | 484 kts | 126° |
| 2026-04-29 15:56 | 38.83997 | 26.44748 | 35063 ft | 485 kts | 112° |
| 2026-04-29 15:56 | 38.83046 | 26.48838 | 35066 ft | 484 kts | 99° |
| 2026-04-29 15:57 | 38.81900 | 26.57333 | 35056 ft | 483 kts | 98° |
| 2026-04-29 15:57 | 38.80788 | 26.65836 | 35048 ft | 483 kts | 98° |
| 2026-04-29 15:58 | 38.79692 | 26.74329 | 35047 ft | 482 kts | 98° |
| 2026-04-29 15:58 | 38.78607 | 26.82819 | 35043 ft | 482 kts | 98° |
| 2026-04-29 15:59 | 38.77483 | 26.91224 | 35028 ft | 481 kts | 103° |
| 2026-04-29 15:59 | 38.74929 | 26.99107 | 35025 ft | 479 kts | 123° |
| 2026-04-29 16:00 | 38.71028 | 27.06011 | 35019 ft | 477 kts | 128° |
| 2026-04-29 16:00 | 38.67061 | 27.12824 | 35011 ft | 477 kts | 128° |
| 2026-04-29 16:01 | 38.63093 | 27.19616 | 35003 ft | 476 kts | 128° |
| 2026-04-29 16:01 | 38.59142 | 27.26358 | 35002 ft | 477 kts | 128° |
| 2026-04-29 16:02 | 38.55144 | 27.33160 | 35003 ft | 477 kts | 128° |
| 2026-04-29 16:02 | 38.51147 | 27.39944 | 35005 ft | 478 kts | 128° |
| 2026-04-29 16:03 | 38.47148 | 27.46674 | 35007 ft | 478 kts | 128° |
| 2026-04-29 16:03 | 38.43122 | 27.53435 | 35008 ft | 478 kts | 128° |
| 2026-04-29 16:04 | 38.39094 | 27.60194 | 35008 ft | 479 kts | 128° |
| 2026-04-29 16:04 | 38.35036 | 27.66991 | 35015 ft | 482 kts | 128° |
| 2026-04-29 16:05 | 38.30968 | 27.73801 | 35009 ft | 483 kts | 128° |
| 2026-04-29 16:05 | 38.26891 | 27.80615 | 35007 ft | 483 kts | 128° |
| 2026-04-29 16:06 | 38.22791 | 27.87411 | 35008 ft | 483 kts | 128° |
| 2026-04-29 16:06 | 38.18725 | 27.94143 | 35008 ft | 484 kts | 128° |
| 2026-04-29 16:07 | 38.14623 | 28.00932 | 35010 ft | 484 kts | 128° |
| 2026-04-29 16:07 | 38.10514 | 28.07729 | 35012 ft | 484 kts | 128° |
| 2026-04-29 16:08 | 38.06431 | 28.14474 | 35012 ft | 484 kts | 128° |
| 2026-04-29 16:08 | 38.02325 | 28.21249 | 35010 ft | 484 kts | 128° |
| 2026-04-29 16:09 | 37.98213 | 28.28024 | 35008 ft | 484 kts | 128° |
| 2026-04-29 16:09 | 37.94101 | 28.34787 | 35005 ft | 484 kts | 128° |
| 2026-04-29 16:10 | 37.89986 | 28.41543 | 35004 ft | 484 kts | 128° |
| 2026-04-29 16:10 | 37.85893 | 28.48250 | 35006 ft | 484 kts | 128° |
| 2026-04-29 16:11 | 37.81769 | 28.54996 | 35007 ft | 485 kts | 128° |
| 2026-04-29 16:11 | 37.77637 | 28.61741 | 35008 ft | 485 kts | 128° |
| 2026-04-29 16:12 | 37.73497 | 28.68488 | 35009 ft | 485 kts | 128° |
| 2026-04-29 16:12 | 37.70022 | 28.75777 | 35014 ft | 486 kts | 115° |
| 2026-04-29 16:13 | 37.67198 | 28.83500 | 35016 ft | 487 kts | 114° |
| 2026-04-29 16:13 | 37.64373 | 28.91294 | 35016 ft | 487 kts | 114° |
| 2026-04-29 16:14 | 37.61563 | 28.99080 | 35016 ft | 487 kts | 114° |
| 2026-04-29 16:14 | 37.58773 | 29.06823 | 35016 ft | 487 kts | 113° |
| 2026-04-29 16:15 | 37.55971 | 29.14603 | 35014 ft | 487 kts | 113° |
| 2026-04-29 16:15 | 37.53174 | 29.22371 | 35014 ft | 487 kts | 113° |
| 2026-04-29 16:16 | 37.50374 | 29.30140 | 35014 ft | 487 kts | 113° |
| 2026-04-29 16:16 | 37.47574 | 29.37900 | 35014 ft | 487 kts | 113° |
| 2026-04-29 16:17 | 37.44709 | 29.45625 | 35015 ft | 487 kts | 115° |
| 2026-04-29 16:17 | 37.41740 | 29.53284 | 35015 ft | 487 kts | 115° |
| 2026-04-29 16:18 | 37.38797 | 29.60883 | 35017 ft | 487 kts | 115° |
| 2026-04-29 16:18 | 37.35707 | 29.68458 | 35012 ft | 488 kts | 122° |
| 2026-04-29 16:18 | 37.33633 | 29.71824 | 35016 ft | 488 kts | 133° |
| 2026-04-29 16:19 | 37.31120 | 29.74682 | 35016 ft | 487 kts | 144° |
| 2026-04-29 16:19 | 37.25579 | 29.79574 | 35018 ft | 487 kts | 146° |
| 2026-04-29 16:20 | 37.20009 | 29.84429 | 35020 ft | 487 kts | 146° |
| 2026-04-29 16:20 | 37.14435 | 29.89267 | 35020 ft | 487 kts | 146° |
| 2026-04-29 16:21 | 37.08854 | 29.94087 | 35022 ft | 487 kts | 146° |
| 2026-04-29 16:21 | 37.03305 | 29.98865 | 35022 ft | 487 kts | 146° |
| 2026-04-29 16:22 | 36.97717 | 30.03666 | 35022 ft | 487 kts | 146° |
| 2026-04-29 16:22 | 36.92124 | 30.08463 | 35023 ft | 487 kts | 146° |
| 2026-04-29 16:23 | 36.86535 | 30.13246 | 35024 ft | 487 kts | 146° |
| 2026-04-29 16:23 | 36.80923 | 30.18019 | 35025 ft | 487 kts | 147° |
| 2026-04-29 16:24 | 36.75338 | 30.22755 | 35026 ft | 488 kts | 147° |
| 2026-04-29 16:24 | 36.69724 | 30.27510 | 35027 ft | 488 kts | 147° |
| 2026-04-29 16:25 | 36.64111 | 30.32259 | 35028 ft | 488 kts | 147° |
| 2026-04-29 16:25 | 36.58493 | 30.37006 | 35028 ft | 488 kts | 147° |
| 2026-04-29 16:26 | 36.52862 | 30.41757 | 35023 ft | 489 kts | 147° |
| 2026-04-29 16:26 | 36.47225 | 30.46506 | 35022 ft | 489 kts | 147° |
| 2026-04-29 16:27 | 36.41587 | 30.51246 | 35030 ft | 490 kts | 147° |
| 2026-04-29 16:27 | 36.35952 | 30.55978 | 35033 ft | 489 kts | 147° |
| 2026-04-29 16:28 | 36.30309 | 30.60710 | 35035 ft | 489 kts | 147° |
| 2026-04-29 16:28 | 36.24672 | 30.65427 | 35038 ft | 489 kts | 147° |
| 2026-04-29 16:29 | 36.19063 | 30.70113 | 35041 ft | 489 kts | 147° |
| 2026-04-29 16:29 | 36.13422 | 30.74818 | 35044 ft | 489 kts | 147° |
| 2026-04-29 16:30 | 36.07802 | 30.79552 | 35044 ft | 489 kts | 143° |
| 2026-04-29 16:30 | 36.03112 | 30.85594 | 35048 ft | 488 kts | 123° |
| 2026-04-29 16:31 | 35.99604 | 30.92705 | 35051 ft | 487 kts | 118° |
| 2026-04-29 16:31 | 35.96281 | 30.99979 | 35050 ft | 486 kts | 117° |
| 2026-04-29 16:32 | 35.93004 | 31.07285 | 35050 ft | 486 kts | 117° |
| 2026-04-29 16:32 | 35.89732 | 31.14588 | 35048 ft | 486 kts | 117° |
| 2026-04-29 16:33 | 35.84817 | 31.25542 | 35043 ft | 486 kts | 117° |
| 2026-04-29 16:33 | 35.81541 | 31.32828 | 35038 ft | 486 kts | 117° |
| 2026-04-29 16:34 | 35.78280 | 31.40065 | 35032 ft | 486 kts | 117° |
| 2026-04-29 16:34 | 35.74995 | 31.47336 | 35027 ft | 486 kts | 117° |
| 2026-04-29 16:35 | 35.71710 | 31.54593 | 35021 ft | 485 kts | 117° |
| 2026-04-29 16:35 | 35.68419 | 31.61846 | 35017 ft | 485 kts | 117° |
| 2026-04-29 16:36 | 35.65127 | 31.69083 | 35014 ft | 485 kts | 117° |
| 2026-04-29 16:36 | 35.61829 | 31.76319 | 35012 ft | 485 kts | 118° |
| 2026-04-29 16:37 | 35.58524 | 31.83554 | 35011 ft | 485 kts | 118° |
| 2026-04-29 16:37 | 35.55777 | 31.89555 | 35008 ft | 485 kts | 118° |
| 2026-04-29 16:38 | 35.51933 | 31.97936 | 35008 ft | 485 kts | 118° |
| 2026-04-29 16:38 | 35.48617 | 32.05146 | 35010 ft | 485 kts | 118° |
| 2026-04-29 16:39 | 35.45280 | 32.12389 | 35011 ft | 487 kts | 118° |
| 2026-04-29 16:39 | 35.41942 | 32.19617 | 35013 ft | 487 kts | 118° |
| 2026-04-29 16:40 | 35.39161 | 32.25627 | 35014 ft | 487 kts | 118° |
| 2026-04-29 16:40 | 35.35262 | 32.34040 | 35011 ft | 488 kts | 118° |
| 2026-04-29 16:41 | 35.32448 | 32.40094 | 35007 ft | 488 kts | 118° |
| 2026-04-29 16:41 | 35.29108 | 32.47265 | 35004 ft | 487 kts | 119° |
| 2026-04-29 16:42 | 35.25746 | 32.54472 | 35000 ft | 487 kts | 119° |
| 2026-04-29 16:42 | 35.22384 | 32.61663 | 34996 ft | 487 kts | 119° |
| 2026-04-29 16:43 | 35.19020 | 32.68842 | 34991 ft | 485 kts | 119° |
| 2026-04-29 16:43 | 35.15670 | 32.75982 | 34982 ft | 483 kts | 120° |
| 2026-04-29 16:44 | 35.12312 | 32.83113 | 34977 ft | 483 kts | 120° |
| 2026-04-29 16:44 | 35.08961 | 32.90221 | 34972 ft | 482 kts | 120° |
| 2026-04-29 16:45 | 35.06088 | 32.97529 | 34971 ft | 481 kts | 109° |
| 2026-04-29 16:45 | 35.03920 | 33.05268 | 34968 ft | 481 kts | 108° |
| 2026-04-29 16:46 | 35.01780 | 33.13006 | 34971 ft | 481 kts | 108° |
| 2026-04-29 16:46 | 34.99567 | 33.20708 | 34976 ft | 480 kts | 109° |
| 2026-04-29 16:47 | 34.97325 | 33.28389 | 34982 ft | 480 kts | 109° |
| 2026-04-29 16:47 | 34.95083 | 33.36057 | 34985 ft | 481 kts | 109° |
| 2026-04-29 16:48 | 34.92842 | 33.43704 | 34982 ft | 482 kts | 109° |
| 2026-04-29 16:48 | 34.90578 | 33.51424 | 34977 ft | 484 kts | 109° |
| 2026-04-29 16:49 | 34.88313 | 33.59159 | 34971 ft | 485 kts | 109° |
| 2026-04-29 16:49 | 34.86129 | 33.66933 | 34966 ft | 485 kts | 108° |
| 2026-04-29 16:50 | 34.84038 | 33.74743 | 34966 ft | 485 kts | 107° |
| 2026-04-29 16:50 | 34.81967 | 33.82485 | 34966 ft | 484 kts | 107° |
| 2026-04-29 16:51 | 34.79881 | 33.90275 | 34966 ft | 483 kts | 107° |
| 2026-04-29 16:51 | 34.77787 | 33.98051 | 34966 ft | 483 kts | 108° |
| 2026-04-29 16:52 | 34.75690 | 34.05821 | 34966 ft | 483 kts | 108° |
| 2026-04-29 16:52 | 34.73584 | 34.13589 | 34966 ft | 483 kts | 108° |
| 2026-04-29 16:53 | 34.71481 | 34.21293 | 34965 ft | 483 kts | 108° |
| 2026-04-29 16:53 | 34.69365 | 34.29042 | 34963 ft | 482 kts | 108° |
| 2026-04-29 16:54 | 34.67247 | 34.36786 | 34963 ft | 482 kts | 108° |
| 2026-04-29 16:54 | 34.65131 | 34.44514 | 34963 ft | 482 kts | 108° |
| 2026-04-29 16:55 | 34.63029 | 34.52179 | 34965 ft | 481 kts | 108° |
| 2026-04-29 16:55 | 34.60917 | 34.59867 | 34970 ft | 480 kts | 108° |
| 2026-04-29 16:56 | 34.58800 | 34.67551 | 34971 ft | 480 kts | 109° |
| 2026-04-29 16:56 | 34.56680 | 34.75229 | 35002 ft | 481 kts | 109° |
| 2026-04-29 16:57 | 34.54544 | 34.82949 | 35279 ft | 484 kts | 109° |
| 2026-04-29 16:57 | 34.53471 | 34.86818 | 35469 ft | 484 kts | 109° |
| 2026-04-29 16:57 | 34.52394 | 34.90698 | 35671 ft | 484 kts | 109° |
| 2026-04-29 16:58 | 34.51320 | 34.94566 | 35894 ft | 484 kts | 109° |
| 2026-04-29 16:58 | 34.50244 | 34.98433 | 36042 ft | 485 kts | 109° |
| 2026-04-29 16:58 | 34.49177 | 35.02261 | 36221 ft | 485 kts | 109° |
| 2026-04-29 16:58 | 34.48092 | 35.06137 | 36405 ft | 486 kts | 109° |
| 2026-04-29 16:59 | 34.46996 | 35.10021 | 36580 ft | 486 kts | 110° |
| 2026-04-29 16:59 | 34.45902 | 35.13900 | 36813 ft | 486 kts | 110° |
| 2026-04-29 16:59 | 34.44806 | 35.17793 | 36940 ft | 489 kts | 110° |
| 2026-04-29 16:59 | 34.43705 | 35.21711 | 36973 ft | 490 kts | 109° |
| 2026-04-29 17:00 | 34.41519 | 35.29500 | 36984 ft | 487 kts | 109° |
| 2026-04-29 17:00 | 34.39358 | 35.37214 | 36988 ft | 487 kts | 110° |
| 2026-04-29 17:01 | 34.37179 | 35.44989 | 36993 ft | 488 kts | 110° |
| 2026-04-29 17:01 | 34.34999 | 35.52764 | 36994 ft | 487 kts | 110° |
| 2026-04-29 17:02 | 34.32815 | 35.60540 | 36994 ft | 487 kts | 110° |
| 2026-04-29 17:02 | 34.30629 | 35.68313 | 36994 ft | 488 kts | 110° |
| 2026-04-29 17:03 | 34.27988 | 35.75800 | 36994 ft | 487 kts | 116° |
| 2026-04-29 17:03 | 34.25122 | 35.83250 | 36993 ft | 488 kts | 116° |
| 2026-04-29 17:04 | 34.22262 | 35.90696 | 36993 ft | 489 kts | 116° |
| 2026-04-29 17:04 | 34.19404 | 35.98145 | 36991 ft | 489 kts | 116° |
| 2026-04-29 17:05 | 34.16554 | 36.05578 | 36991 ft | 490 kts | 116° |
| 2026-04-29 17:05 | 34.13691 | 36.13040 | 36991 ft | 490 kts | 117° |
| 2026-04-29 17:06 | 34.10825 | 36.20507 | 36991 ft | 490 kts | 117° |
| 2026-04-29 17:06 | 34.07957 | 36.27968 | 36989 ft | 490 kts | 117° |
| 2026-04-29 17:07 | 34.05075 | 36.35457 | 36988 ft | 492 kts | 117° |
| 2026-04-29 17:07 | 34.02264 | 36.42928 | 36985 ft | 493 kts | 115° |
| 2026-04-29 17:08 | 33.99566 | 36.50523 | 36983 ft | 493 kts | 115° |
| 2026-04-29 17:08 | 33.96835 | 36.58112 | 36979 ft | 493 kts | 116° |
| 2026-04-29 17:09 | 33.94003 | 36.65640 | 36976 ft | 493 kts | 117° |
| 2026-04-29 17:09 | 33.91167 | 36.73171 | 36972 ft | 493 kts | 117° |
| 2026-04-29 17:10 | 33.88333 | 36.80695 | 36970 ft | 493 kts | 117° |
| 2026-04-29 17:10 | 33.85497 | 36.88221 | 36969 ft | 493 kts | 117° |
| 2026-04-29 17:11 | 33.82679 | 36.95692 | 36968 ft | 493 kts | 117° |
| 2026-04-29 17:11 | 33.79839 | 37.03215 | 36967 ft | 493 kts | 117° |
| 2026-04-29 17:12 | 33.76997 | 37.10729 | 36968 ft | 493 kts | 117° |
| 2026-04-29 17:12 | 33.74630 | 37.16979 | 36968 ft | 494 kts | 117° |
| 2026-04-29 17:13 | 33.71303 | 37.25754 | 36976 ft | 497 kts | 118° |
| 2026-04-29 17:13 | 33.68430 | 37.33304 | 36975 ft | 496 kts | 118° |
| 2026-04-29 17:14 | 33.65554 | 37.40848 | 36973 ft | 496 kts | 118° |
| 2026-04-29 17:14 | 33.62677 | 37.48380 | 36972 ft | 496 kts | 118° |
| 2026-04-29 17:15 | 33.59817 | 37.55863 | 36970 ft | 489 kts | 118° |
| 2026-04-29 17:15 | 33.56514 | 37.62924 | 36966 ft | 480 kts | 135° |
| 2026-04-29 17:16 | 33.54133 | 37.65593 | 36969 ft | 470 kts | 149° |
| 2026-04-29 17:16 | 33.51350 | 37.67556 | 36976 ft | 462 kts | 159° |
| 2026-04-29 17:16 | 33.45574 | 37.70963 | 36969 ft | 462 kts | 160° |
| 2026-04-29 17:17 | 33.39786 | 37.74328 | 36968 ft | 462 kts | 160° |
| 2026-04-29 17:17 | 33.33994 | 37.77674 | 36968 ft | 462 kts | 160° |
| 2026-04-29 17:18 | 33.28232 | 37.80990 | 36967 ft | 462 kts | 160° |
| 2026-04-29 17:18 | 33.22432 | 37.84315 | 36967 ft | 462 kts | 160° |
| 2026-04-29 17:19 | 33.16634 | 37.87630 | 36966 ft | 462 kts | 160° |
| 2026-04-29 17:19 | 33.10820 | 37.90946 | 36965 ft | 462 kts | 160° |
| 2026-04-29 17:20 | 33.05047 | 37.94231 | 36965 ft | 462 kts | 160° |
| 2026-04-29 17:20 | 32.99232 | 37.97532 | 36964 ft | 462 kts | 160° |
| 2026-04-29 17:21 | 32.93432 | 38.00854 | 36965 ft | 462 kts | 160° |
| 2026-04-29 17:21 | 32.87665 | 38.04267 | 36966 ft | 462 kts | 159° |
| 2026-04-29 17:22 | 32.81915 | 38.07677 | 36969 ft | 462 kts | 159° |
| 2026-04-29 17:22 | 32.76168 | 38.11089 | 36975 ft | 462 kts | 159° |
| 2026-04-29 17:23 | 32.70460 | 38.14475 | 36982 ft | 461 kts | 158° |
| 2026-04-29 17:23 | 32.64714 | 38.17881 | 36987 ft | 460 kts | 158° |
| 2026-04-29 17:24 | 32.58993 | 38.21270 | 36991 ft | 459 kts | 157° |
| 2026-04-29 17:24 | 32.53269 | 38.24660 | 36992 ft | 459 kts | 157° |
| 2026-04-29 17:25 | 32.47552 | 38.28043 | 36993 ft | 459 kts | 157° |
| 2026-04-29 17:25 | 32.41834 | 38.31421 | 36993 ft | 459 kts | 157° |
| 2026-04-29 17:26 | 32.36146 | 38.34780 | 36992 ft | 459 kts | 158° |
| 2026-04-29 17:26 | 32.30423 | 38.38157 | 36991 ft | 460 kts | 158° |
| 2026-04-29 17:27 | 32.24688 | 38.41535 | 36989 ft | 461 kts | 159° |
| 2026-04-29 17:27 | 32.18944 | 38.44913 | 36987 ft | 461 kts | 159° |
| 2026-04-29 17:28 | 32.14152 | 38.47725 | 36985 ft | 461 kts | 160° |
| 2026-04-29 17:28 | 32.08403 | 38.51104 | 36983 ft | 461 kts | 161° |
| 2026-04-29 17:29 | 32.02686 | 38.54451 | 36982 ft | 461 kts | 162° |
| 2026-04-29 17:29 | 31.96937 | 38.57805 | 36982 ft | 461 kts | 162° |
| 2026-04-29 17:30 | 31.91185 | 38.61156 | 36983 ft | 461 kts | 162° |
| 2026-04-29 17:30 | 31.85426 | 38.64479 | 36984 ft | 460 kts | 162° |
| 2026-04-29 17:31 | 31.79705 | 38.67779 | 36987 ft | 461 kts | 162° |
| 2026-04-29 17:31 | 31.73946 | 38.71127 | 36989 ft | 463 kts | 160° |
| 2026-04-29 17:32 | 31.68607 | 38.75580 | 36990 ft | 481 kts | 145° |
| 2026-04-29 17:32 | 31.64033 | 38.81431 | 36991 ft | 487 kts | 139° |
| 2026-04-29 17:33 | 31.59571 | 38.87382 | 36986 ft | 488 kts | 139° |
| 2026-04-29 17:33 | 31.55097 | 38.93367 | 36982 ft | 488 kts | 139° |
| 2026-04-29 17:34 | 31.50625 | 38.99360 | 36976 ft | 488 kts | 139° |
| 2026-04-29 17:34 | 31.46157 | 39.05352 | 36971 ft | 488 kts | 139° |
| 2026-04-29 17:35 | 31.39447 | 39.14352 | 36963 ft | 489 kts | 139° |
| 2026-04-29 17:36 | 31.34975 | 39.20348 | 36958 ft | 489 kts | 139° |
| 2026-04-29 17:36 | 31.30529 | 39.26307 | 36956 ft | 489 kts | 140° |
| 2026-04-29 17:37 | 31.26051 | 39.32303 | 36958 ft | 490 kts | 140° |
| 2026-04-29 17:37 | 31.21567 | 39.38298 | 36959 ft | 490 kts | 140° |
| 2026-04-29 17:38 | 31.17069 | 39.44305 | 36962 ft | 490 kts | 140° |
| 2026-04-29 17:38 | 31.12578 | 39.50295 | 36965 ft | 490 kts | 140° |
| 2026-04-29 17:39 | 31.08116 | 39.56239 | 36970 ft | 490 kts | 140° |
| 2026-04-29 17:39 | 31.03619 | 39.62220 | 36974 ft | 490 kts | 141° |
| 2026-04-29 17:40 | 30.99123 | 39.68195 | 36979 ft | 489 kts | 141° |
| 2026-04-29 17:40 | 30.94618 | 39.74169 | 36987 ft | 490 kts | 141° |
| 2026-04-29 17:41 | 30.90147 | 39.80089 | 36990 ft | 490 kts | 141° |
| 2026-04-29 17:41 | 30.85615 | 39.86081 | 36991 ft | 489 kts | 141° |
| 2026-04-29 17:42 | 30.81141 | 39.91988 | 36991 ft | 490 kts | 141° |
| 2026-04-29 17:42 | 30.76634 | 39.97928 | 36993 ft | 490 kts | 141° |
| 2026-04-29 17:43 | 30.72129 | 40.03859 | 36992 ft | 489 kts | 141° |
| 2026-04-29 17:43 | 30.67620 | 40.09785 | 36994 ft | 489 kts | 141° |
| 2026-04-29 17:44 | 30.63107 | 40.15707 | 36993 ft | 489 kts | 141° |
| 2026-04-29 17:44 | 30.58767 | 40.21794 | 36989 ft | 503 kts | 131° |
| 2026-04-29 17:45 | 30.55292 | 40.28923 | 36994 ft | 508 kts | 128° |
| 2026-04-29 17:45 | 30.51886 | 40.36112 | 36993 ft | 508 kts | 128° |
| 2026-04-29 17:46 | 30.48496 | 40.43306 | 36991 ft | 510 kts | 128° |
| 2026-04-29 17:46 | 30.45098 | 40.50541 | 36984 ft | 510 kts | 128° |
| 2026-04-29 17:47 | 30.41710 | 40.57769 | 36954 ft | 510 kts | 128° |
| 2026-04-29 17:47 | 30.37749 | 40.64396 | 36967 ft | 492 kts | 142° |
| 2026-04-29 17:48 | 30.32901 | 40.69793 | 36961 ft | 481 kts | 149° |
| 2026-04-29 17:48 | 30.27973 | 40.74953 | 36951 ft | 480 kts | 149° |
| 2026-04-29 17:49 | 30.23013 | 40.80133 | 36939 ft | 480 kts | 149° |
| 2026-04-29 17:49 | 30.18048 | 40.85309 | 36928 ft | 480 kts | 149° |
| 2026-04-29 17:50 | 30.13078 | 40.90480 | 36922 ft | 481 kts | 149° |
| 2026-04-29 17:50 | 30.08107 | 40.95644 | 36914 ft | 480 kts | 149° |
| 2026-04-29 17:51 | 30.03133 | 41.00803 | 36910 ft | 480 kts | 149° |
| 2026-04-29 17:51 | 29.98166 | 41.05947 | 36906 ft | 479 kts | 149° |
| 2026-04-29 17:52 | 29.93195 | 41.11087 | 36908 ft | 480 kts | 149° |
| 2026-04-29 17:52 | 29.88249 | 41.16193 | 36909 ft | 479 kts | 149° |
| 2026-04-29 17:53 | 29.83289 | 41.21308 | 36910 ft | 479 kts | 149° |
| 2026-04-29 17:53 | 29.78323 | 41.26420 | 36913 ft | 479 kts | 149° |
| 2026-04-29 17:54 | 29.73399 | 41.31596 | 36912 ft | 487 kts | 144° |
| 2026-04-29 17:54 | 29.68804 | 41.37364 | 36919 ft | 488 kts | 143° |
| 2026-04-29 17:55 | 29.64228 | 41.43146 | 36923 ft | 488 kts | 143° |
| 2026-04-29 17:55 | 29.59676 | 41.48903 | 36924 ft | 488 kts | 143° |
| 2026-04-29 17:56 | 29.55106 | 41.54689 | 36940 ft | 490 kts | 143° |
| 2026-04-29 17:56 | 29.50518 | 41.60498 | 36946 ft | 490 kts | 143° |
| 2026-04-29 17:57 | 29.45938 | 41.66295 | 36949 ft | 490 kts | 143° |
| 2026-04-29 17:57 | 29.41359 | 41.72088 | 36949 ft | 490 kts | 143° |
| 2026-04-29 17:58 | 29.36801 | 41.77849 | 36952 ft | 490 kts | 144° |
| 2026-04-29 17:58 | 29.32206 | 41.83651 | 36954 ft | 491 kts | 144° |
| 2026-04-29 17:59 | 29.27612 | 41.89446 | 36956 ft | 491 kts | 144° |
| 2026-04-29 17:59 | 29.23013 | 41.95241 | 36958 ft | 491 kts | 144° |
| 2026-04-29 18:00 | 29.18442 | 42.00992 | 36959 ft | 492 kts | 144° |
| 2026-04-29 18:00 | 29.13831 | 42.06786 | 36961 ft | 492 kts | 144° |
| 2026-04-29 18:01 | 29.09217 | 42.12578 | 36962 ft | 492 kts | 144° |
| 2026-04-29 18:01 | 29.04598 | 42.18366 | 36961 ft | 492 kts | 144° |
| 2026-04-29 18:02 | 28.99955 | 42.24104 | 36961 ft | 492 kts | 144° |
| 2026-04-29 18:02 | 28.95294 | 42.29858 | 36962 ft | 494 kts | 144° |
| 2026-04-29 18:03 | 28.90659 | 42.35590 | 36962 ft | 494 kts | 144° |
| 2026-04-29 18:03 | 28.86003 | 42.41351 | 36961 ft | 494 kts | 144° |
| 2026-04-29 18:04 | 28.81338 | 42.47122 | 36959 ft | 494 kts | 144° |
| 2026-04-29 18:04 | 28.76680 | 42.52885 | 36950 ft | 493 kts | 144° |
| 2026-04-29 18:05 | 28.72023 | 42.58643 | 36944 ft | 493 kts | 144° |
| 2026-04-29 18:05 | 28.67393 | 42.64362 | 36942 ft | 494 kts | 144° |
| 2026-04-29 18:06 | 28.62723 | 42.70108 | 36940 ft | 493 kts | 144° |
| 2026-04-29 18:06 | 28.58049 | 42.75830 | 36940 ft | 493 kts | 144° |
| 2026-04-29 18:07 | 28.53379 | 42.81549 | 36939 ft | 493 kts | 144° |
| 2026-04-29 18:07 | 28.48707 | 42.87270 | 36939 ft | 494 kts | 144° |
| 2026-04-29 18:08 | 28.44046 | 42.92976 | 36944 ft | 495 kts | 144° |
| 2026-04-29 18:08 | 28.39361 | 42.98709 | 36944 ft | 495 kts | 144° |
| 2026-04-29 18:09 | 28.34672 | 43.04444 | 36930 ft | 494 kts | 144° |
| 2026-04-29 18:09 | 28.29988 | 43.10165 | 36927 ft | 494 kts | 144° |
| 2026-04-29 18:10 | 28.25336 | 43.15841 | 36927 ft | 494 kts | 144° |
| 2026-04-29 18:10 | 28.20651 | 43.21552 | 36927 ft | 494 kts | 145° |
| 2026-04-29 18:11 | 28.15963 | 43.27259 | 36925 ft | 494 kts | 145° |
| 2026-04-29 18:11 | 28.11275 | 43.32958 | 36923 ft | 495 kts | 144° |
| 2026-04-29 18:12 | 28.06565 | 43.38675 | 36921 ft | 496 kts | 144° |
| 2026-04-29 18:12 | 28.01893 | 43.44342 | 36917 ft | 496 kts | 144° |
| 2026-04-29 18:13 | 27.97181 | 43.50050 | 36911 ft | 496 kts | 144° |
| 2026-04-29 18:13 | 27.92472 | 43.55746 | 36899 ft | 495 kts | 144° |
| 2026-04-29 18:14 | 27.87766 | 43.61430 | 36893 ft | 495 kts | 144° |
| 2026-04-29 18:14 | 27.82997 | 43.67007 | 36889 ft | 490 kts | 148° |
| 2026-04-29 18:15 | 27.78072 | 43.72326 | 36887 ft | 489 kts | 148° |
| 2026-04-29 18:15 | 27.73146 | 43.77642 | 36884 ft | 489 kts | 148° |
| 2026-04-29 18:16 | 27.68256 | 43.82926 | 36882 ft | 490 kts | 148° |
| 2026-04-29 18:16 | 27.63337 | 43.88246 | 36882 ft | 490 kts | 148° |
| 2026-04-29 18:17 | 27.59246 | 43.92673 | 36882 ft | 490 kts | 148° |
| 2026-04-29 18:17 | 27.54323 | 43.97998 | 36882 ft | 490 kts | 148° |
| 2026-04-29 18:18 | 27.49400 | 44.03320 | 36876 ft | 491 kts | 147° |
| 2026-04-29 18:18 | 27.44468 | 44.08651 | 36874 ft | 491 kts | 147° |
| 2026-04-29 18:19 | 27.39568 | 44.13943 | 36874 ft | 491 kts | 147° |
| 2026-04-29 18:19 | 27.34641 | 44.19259 | 36875 ft | 491 kts | 147° |
| 2026-04-29 18:20 | 27.29712 | 44.24573 | 36875 ft | 491 kts | 147° |
| 2026-04-29 18:20 | 27.24774 | 44.29891 | 36875 ft | 491 kts | 147° |
| 2026-04-29 18:21 | 27.19843 | 44.35195 | 36874 ft | 491 kts | 147° |
| 2026-04-29 18:21 | 27.14896 | 44.40492 | 36875 ft | 490 kts | 147° |
| 2026-04-29 18:22 | 27.09949 | 44.45763 | 36874 ft | 490 kts | 147° |
| 2026-04-29 18:22 | 27.05035 | 44.51000 | 36882 ft | 491 kts | 147° |
| 2026-04-29 18:23 | 27.00082 | 44.56284 | 36883 ft | 491 kts | 147° |
| 2026-04-29 18:23 | 26.95126 | 44.61557 | 36883 ft | 491 kts | 147° |
| 2026-04-29 18:24 | 26.90175 | 44.66820 | 36874 ft | 490 kts | 147° |
| 2026-04-29 18:24 | 26.85255 | 44.72050 | 36872 ft | 490 kts | 147° |
| 2026-04-29 18:25 | 26.80315 | 44.77300 | 36872 ft | 490 kts | 147° |
| 2026-04-29 18:25 | 26.75365 | 44.82550 | 36871 ft | 490 kts | 147° |
| 2026-04-29 18:26 | 26.70412 | 44.87781 | 36870 ft | 489 kts | 147° |
| 2026-04-29 18:26 | 26.65464 | 44.93006 | 36869 ft | 489 kts | 147° |
| 2026-04-29 18:27 | 26.60518 | 44.98227 | 36867 ft | 489 kts | 146° |
| 2026-04-29 18:27 | 26.55572 | 45.03436 | 36865 ft | 488 kts | 146° |
| 2026-04-29 18:28 | 26.50620 | 45.08647 | 36863 ft | 488 kts | 146° |
| 2026-04-29 18:28 | 26.45717 | 45.13805 | 36857 ft | 487 kts | 146° |
| 2026-04-29 18:29 | 26.40780 | 45.18996 | 36855 ft | 486 kts | 146° |
| 2026-04-29 18:29 | 26.35849 | 45.24178 | 36853 ft | 486 kts | 146° |
| 2026-04-29 18:30 | 26.30955 | 45.29317 | 36851 ft | 486 kts | 146° |
| 2026-04-29 18:30 | 26.26028 | 45.34484 | 36850 ft | 486 kts | 145° |
| 2026-04-29 18:31 | 26.21104 | 45.39649 | 36849 ft | 485 kts | 145° |
| 2026-04-29 18:31 | 26.16182 | 45.44808 | 36849 ft | 485 kts | 145° |
| 2026-04-29 18:32 | 26.11294 | 45.49924 | 36848 ft | 485 kts | 145° |
| 2026-04-29 18:32 | 26.03918 | 45.57643 | 36848 ft | 484 kts | 145° |
| 2026-04-29 18:33 | 25.99008 | 45.62777 | 36848 ft | 483 kts | 145° |
| 2026-04-29 18:33 | 25.94124 | 45.67880 | 36851 ft | 481 kts | 145° |
| 2026-04-29 18:34 | 25.90063 | 45.72120 | 36851 ft | 482 kts | 145° |
| 2026-04-29 18:34 | 25.84383 | 45.78034 | 36852 ft | 481 kts | 145° |
| 2026-04-29 18:35 | 25.79486 | 45.83115 | 36852 ft | 481 kts | 145° |
| 2026-04-29 18:35 | 25.74591 | 45.88195 | 36854 ft | 481 kts | 145° |
| 2026-04-29 18:36 | 25.69722 | 45.93245 | 36857 ft | 480 kts | 145° |
| 2026-04-29 18:36 | 25.64845 | 45.98301 | 36862 ft | 480 kts | 145° |
| 2026-04-29 18:37 | 25.59990 | 46.03322 | 36879 ft | 475 kts | 145° |
| 2026-04-29 18:37 | 25.55149 | 46.08316 | 36890 ft | 475 kts | 144° |
| 2026-04-29 18:38 | 25.50318 | 46.13301 | 36899 ft | 474 kts | 144° |
| 2026-04-29 18:38 | 25.45513 | 46.18256 | 36908 ft | 474 kts | 144° |
| 2026-04-29 18:39 | 25.40688 | 46.23229 | 36915 ft | 473 kts | 144° |
| 2026-04-29 18:39 | 25.35863 | 46.28198 | 36922 ft | 472 kts | 144° |
| 2026-04-29 18:40 | 25.31100 | 46.33099 | 36938 ft | 469 kts | 144° |
| 2026-04-29 18:40 | 25.26324 | 46.38009 | 36945 ft | 469 kts | 144° |
| 2026-04-29 18:41 | 25.16761 | 46.47823 | 36954 ft | 468 kts | 143° |
| 2026-04-29 18:42 | 25.11986 | 46.52713 | 36963 ft | 468 kts | 143° |
| 2026-04-29 18:42 | 25.07210 | 46.57605 | 36964 ft | 468 kts | 143° |
| 2026-04-29 18:43 | 25.02440 | 46.62487 | 36964 ft | 468 kts | 143° |
| 2026-04-29 18:43 | 24.98232 | 46.68014 | 36963 ft | 481 kts | 127° |
| 2026-04-29 18:44 | 24.95329 | 46.74756 | 36965 ft | 489 kts | 118° |
| 2026-04-29 18:44 | 24.92695 | 46.81615 | 36962 ft | 488 kts | 117° |
| 2026-04-29 18:45 | 24.90064 | 46.88513 | 36959 ft | 488 kts | 117° |
| 2026-04-29 18:45 | 24.87441 | 46.95418 | 36954 ft | 489 kts | 117° |
| 2026-04-29 18:46 | 24.84819 | 47.02334 | 36952 ft | 489 kts | 117° |
| 2026-04-29 18:46 | 24.82195 | 47.09267 | 36952 ft | 489 kts | 117° |
| 2026-04-29 18:47 | 24.79583 | 47.16172 | 36953 ft | 488 kts | 117° |
| 2026-04-29 18:47 | 24.76992 | 47.23020 | 36954 ft | 487 kts | 117° |
| 2026-04-29 18:48 | 24.74387 | 47.29902 | 36956 ft | 487 kts | 117° |
| 2026-04-29 18:48 | 24.71777 | 47.36792 | 36956 ft | 487 kts | 117° |
| 2026-04-29 18:49 | 24.69159 | 47.43696 | 36924 ft | 491 kts | 117° |
| 2026-04-29 18:49 | 24.66517 | 47.50668 | 36905 ft | 494 kts | 118° |
| 2026-04-29 18:50 | 24.63875 | 47.57616 | 36908 ft | 492 kts | 117° |
| 2026-04-29 18:50 | 24.61229 | 47.64565 | 36910 ft | 492 kts | 117° |
| 2026-04-29 18:51 | 24.58584 | 47.71504 | 36910 ft | 492 kts | 117° |
| 2026-04-29 18:51 | 24.55935 | 47.78446 | 36910 ft | 492 kts | 117° |
| 2026-04-29 18:52 | 24.53526 | 47.85461 | 36910 ft | 494 kts | 115° |
| 2026-04-29 18:52 | 24.51185 | 47.92575 | 36881 ft | 495 kts | 114° |
| 2026-04-29 18:53 | 24.48852 | 47.99679 | 36871 ft | 494 kts | 114° |
| 2026-04-29 18:53 | 24.46520 | 48.06788 | 36869 ft | 494 kts | 114° |
| 2026-04-29 18:54 | 24.44191 | 48.13889 | 36867 ft | 494 kts | 114° |
| 2026-04-29 18:54 | 24.41864 | 48.20983 | 36866 ft | 494 kts | 114° |
| 2026-04-29 18:55 | 24.39532 | 48.28085 | 36865 ft | 494 kts | 114° |
| 2026-04-29 18:55 | 24.37216 | 48.35132 | 36851 ft | 494 kts | 114° |
| 2026-04-29 18:56 | 24.34887 | 48.42212 | 36845 ft | 494 kts | 114° |
| 2026-04-29 18:56 | 24.32552 | 48.49301 | 36845 ft | 493 kts | 114° |
| 2026-04-29 18:57 | 24.30222 | 48.56365 | 36845 ft | 493 kts | 114° |
| 2026-04-29 18:57 | 24.27885 | 48.63438 | 36845 ft | 493 kts | 114° |
| 2026-04-29 18:58 | 24.25550 | 48.70497 | 36845 ft | 493 kts | 114° |
| 2026-04-29 18:58 | 24.23211 | 48.77552 | 36845 ft | 492 kts | 114° |
| 2026-04-29 18:59 | 24.20871 | 48.84601 | 36845 ft | 492 kts | 114° |
| 2026-04-29 18:59 | 24.18506 | 48.91633 | 36844 ft | 491 kts | 116° |
| 2026-04-29 19:00 | 24.15901 | 48.98534 | 36845 ft | 490 kts | 117° |
| 2026-04-29 19:00 | 24.13340 | 49.05460 | 36845 ft | 490 kts | 116° |
| 2026-04-29 19:01 | 24.10793 | 49.12389 | 36845 ft | 490 kts | 116° |
| 2026-04-29 19:01 | 24.08263 | 49.19280 | 36845 ft | 490 kts | 116° |
| 2026-04-29 19:02 | 24.06130 | 49.25087 | 36845 ft | 490 kts | 116° |
| 2026-04-29 19:02 | 24.03170 | 49.33138 | 36845 ft | 490 kts | 116° |
| 2026-04-29 19:03 | 24.00623 | 49.40053 | 36845 ft | 490 kts | 116° |
| 2026-04-29 19:03 | 23.98503 | 49.45800 | 36845 ft | 489 kts | 116° |
| 2026-04-29 19:04 | 23.95959 | 49.52689 | 36845 ft | 488 kts | 116° |
| 2026-04-29 19:04 | 23.93412 | 49.59572 | 36845 ft | 488 kts | 116° |
| 2026-04-29 19:05 | 23.90880 | 49.66402 | 36845 ft | 488 kts | 116° |
| 2026-04-29 19:05 | 23.88330 | 49.73272 | 36845 ft | 488 kts | 116° |
| 2026-04-29 19:06 | 23.85775 | 49.80142 | 36845 ft | 488 kts | 116° |
| 2026-04-29 19:07 | 23.81941 | 49.90431 | 36845 ft | 487 kts | 116° |
| 2026-04-29 19:07 | 23.79380 | 49.97288 | 36845 ft | 487 kts | 116° |
| 2026-04-29 19:08 | 23.76817 | 50.04140 | 36842 ft | 487 kts | 116° |
| 2026-04-29 19:08 | 23.74268 | 50.10944 | 36840 ft | 487 kts | 116° |
| 2026-04-29 19:09 | 23.71685 | 50.17827 | 36838 ft | 487 kts | 116° |
| 2026-04-29 19:09 | 23.69136 | 50.24610 | 36836 ft | 486 kts | 116° |
| 2026-04-29 19:10 | 23.66564 | 50.31443 | 36833 ft | 486 kts | 116° |
| 2026-04-29 19:10 | 23.63993 | 50.38262 | 36830 ft | 486 kts | 116° |
| 2026-04-29 19:11 | 23.61418 | 50.45083 | 36827 ft | 486 kts | 116° |
| 2026-04-29 19:11 | 23.58841 | 50.51896 | 36823 ft | 486 kts | 116° |
| 2026-04-29 19:12 | 23.56278 | 50.58662 | 36821 ft | 485 kts | 116° |
| 2026-04-29 19:12 | 23.53699 | 50.65461 | 36820 ft | 485 kts | 116° |
| 2026-04-29 19:13 | 23.51119 | 50.72250 | 36820 ft | 485 kts | 116° |
| 2026-04-29 19:13 | 23.48540 | 50.79025 | 36821 ft | 483 kts | 116° |
| 2026-04-29 19:14 | 23.45963 | 50.85787 | 36822 ft | 483 kts | 116° |
| 2026-04-29 19:14 | 23.43385 | 50.92542 | 36824 ft | 482 kts | 116° |
| 2026-04-29 19:15 | 23.40823 | 50.99243 | 36827 ft | 482 kts | 116° |
| 2026-04-29 19:15 | 23.38240 | 51.05989 | 36829 ft | 482 kts | 116° |
| 2026-04-29 19:16 | 23.35656 | 51.12728 | 36831 ft | 482 kts | 116° |
| 2026-04-29 19:16 | 23.33069 | 51.19463 | 36832 ft | 482 kts | 116° |
| 2026-04-29 19:17 | 23.30482 | 51.26190 | 36834 ft | 482 kts | 116° |
| 2026-04-29 19:17 | 23.27890 | 51.32919 | 36834 ft | 482 kts | 116° |
| 2026-04-29 19:18 | 23.25312 | 51.39600 | 36835 ft | 481 kts | 116° |
| 2026-04-29 19:18 | 23.22717 | 51.46317 | 36836 ft | 481 kts | 116° |
| 2026-04-29 19:19 | 23.20118 | 51.53031 | 36837 ft | 482 kts | 116° |
| 2026-04-29 19:19 | 23.17515 | 51.59750 | 36837 ft | 482 kts | 116° |
| 2026-04-29 19:20 | 23.14911 | 51.66459 | 36838 ft | 481 kts | 116° |
| 2026-04-29 19:20 | 23.12322 | 51.73120 | 36840 ft | 481 kts | 116° |
| 2026-04-29 19:21 | 23.09713 | 51.79823 | 36841 ft | 481 kts | 116° |
| 2026-04-29 19:21 | 23.07103 | 51.86518 | 36842 ft | 481 kts | 116° |
| 2026-04-29 19:22 | 23.04493 | 51.93204 | 36844 ft | 481 kts | 116° |
| 2026-04-29 19:22 | 23.01879 | 51.99888 | 36844 ft | 481 kts | 116° |
| 2026-04-29 19:23 | 22.99262 | 52.06572 | 36844 ft | 480 kts | 116° |
| 2026-04-29 19:23 | 22.96648 | 52.13237 | 36844 ft | 480 kts | 116° |
| 2026-04-29 19:24 | 22.94046 | 52.19863 | 36842 ft | 480 kts | 116° |
| 2026-04-29 19:24 | 22.91424 | 52.26532 | 36840 ft | 480 kts | 116° |
| 2026-04-29 19:25 | 22.88800 | 52.33194 | 36839 ft | 480 kts | 116° |
| 2026-04-29 19:25 | 22.86174 | 52.39851 | 36837 ft | 480 kts | 116° |
| 2026-04-29 19:26 | 22.83549 | 52.46498 | 36835 ft | 480 kts | 116° |
| 2026-04-29 19:26 | 22.81583 | 52.53425 | 36823 ft | 485 kts | 101° |
| 2026-04-29 19:27 | 22.80528 | 52.60648 | 36810 ft | 486 kts | 100° |
| 2026-04-29 19:27 | 22.79632 | 52.67909 | 36804 ft | 486 kts | 99° |
| 2026-04-29 19:28 | 22.78759 | 52.75169 | 36800 ft | 486 kts | 99° |
| 2026-04-29 19:28 | 22.77894 | 52.82387 | 36797 ft | 486 kts | 99° |
| 2026-04-29 19:29 | 22.77024 | 52.89650 | 36794 ft | 486 kts | 99° |
| 2026-04-29 19:29 | 22.76151 | 52.96914 | 36793 ft | 486 kts | 99° |
| 2026-04-29 19:30 | 22.75274 | 53.04176 | 36802 ft | 486 kts | 99° |
| 2026-04-29 19:30 | 22.74396 | 53.11443 | 36790 ft | 486 kts | 99° |
| 2026-04-29 19:31 | 22.73513 | 53.18701 | 36790 ft | 486 kts | 99° |
| 2026-04-29 19:31 | 22.72628 | 53.25955 | 36790 ft | 486 kts | 99° |
| 2026-04-29 19:32 | 22.71739 | 53.33209 | 36791 ft | 485 kts | 99° |
| 2026-04-29 19:32 | 22.70853 | 53.40406 | 36791 ft | 485 kts | 99° |
| 2026-04-29 19:33 | 22.69958 | 53.47651 | 36791 ft | 485 kts | 99° |
| 2026-04-29 19:33 | 22.69059 | 53.54901 | 36791 ft | 486 kts | 99° |
| 2026-04-29 19:34 | 22.68157 | 53.62148 | 36792 ft | 485 kts | 99° |
| 2026-04-29 19:34 | 22.67252 | 53.69391 | 36792 ft | 485 kts | 99° |
| 2026-04-29 19:35 | 22.66344 | 53.76632 | 36792 ft | 485 kts | 99° |
| 2026-04-29 19:35 | 22.65431 | 53.83878 | 36792 ft | 485 kts | 99° |
| 2026-04-29 19:36 | 22.64517 | 53.91108 | 36792 ft | 485 kts | 99° |
| 2026-04-29 19:36 | 22.63605 | 53.98299 | 36793 ft | 485 kts | 99° |
| 2026-04-29 19:37 | 22.62684 | 54.05532 | 36798 ft | 485 kts | 99° |
| 2026-04-29 19:37 | 22.61758 | 54.12771 | 36800 ft | 485 kts | 99° |
| 2026-04-29 19:38 | 22.60832 | 54.19996 | 36802 ft | 484 kts | 99° |
| 2026-04-29 19:38 | 22.59902 | 54.27219 | 36805 ft | 484 kts | 99° |
| 2026-04-29 19:39 | 22.58968 | 54.34443 | 36801 ft | 484 kts | 99° |
| 2026-04-29 19:39 | 22.58032 | 54.41660 | 36802 ft | 484 kts | 100° |
| 2026-04-29 19:40 | 22.57092 | 54.48880 | 36804 ft | 484 kts | 100° |
| 2026-04-29 19:40 | 22.56153 | 54.56068 | 36805 ft | 485 kts | 99° |
| 2026-04-29 19:41 | 22.55206 | 54.63288 | 36807 ft | 484 kts | 99° |
| 2026-04-29 19:41 | 22.54256 | 54.70514 | 36809 ft | 484 kts | 99° |
| 2026-04-29 19:42 | 22.53304 | 54.77722 | 36810 ft | 484 kts | 99° |
| 2026-04-29 19:42 | 22.52349 | 54.84927 | 36811 ft | 484 kts | 100° |
| 2026-04-29 19:43 | 22.51390 | 54.92138 | 36812 ft | 484 kts | 100° |
| 2026-04-29 19:43 | 22.50429 | 54.99340 | 36812 ft | 484 kts | 100° |
| 2026-04-29 19:44 | 22.49474 | 55.06467 | 36819 ft | 478 kts | 99° |
| 2026-04-29 19:44 | 22.48517 | 55.13594 | 36821 ft | 479 kts | 99° |
| 2026-04-29 19:45 | 22.47555 | 55.20731 | 36822 ft | 479 kts | 99° |
| 2026-04-29 19:45 | 22.46590 | 55.27862 | 36823 ft | 479 kts | 99° |
| 2026-04-29 19:46 | 22.46082 | 55.35035 | 36820 ft | 481 kts | 84° |
| 2026-04-29 19:46 | 22.46831 | 55.38564 | 36824 ft | 482 kts | 70° |
| 2026-04-29 19:46 | 22.48306 | 55.41754 | 36830 ft | 481 kts | 57° |
| 2026-04-29 19:47 | 22.51919 | 55.47889 | 36826 ft | 487 kts | 56° |
| 2026-04-29 19:47 | 22.55599 | 55.54068 | 36833 ft | 487 kts | 56° |
| 2026-04-29 19:48 | 22.59281 | 55.60211 | 36836 ft | 487 kts | 56° |
| 2026-04-29 19:48 | 22.62973 | 55.66350 | 36836 ft | 487 kts | 56° |
| 2026-04-29 19:49 | 22.66676 | 55.72503 | 36792 ft | 487 kts | 56° |
| 2026-04-29 19:49 | 22.70380 | 55.78644 | 36783 ft | 487 kts | 56° |
| 2026-04-29 19:50 | 22.74070 | 55.84751 | 36777 ft | 488 kts | 56° |
| 2026-04-29 19:50 | 22.77787 | 55.90899 | 36771 ft | 488 kts | 55° |
| 2026-04-29 19:51 | 22.81506 | 55.97055 | 36766 ft | 488 kts | 55° |
| 2026-04-29 19:51 | 22.85219 | 56.03215 | 36762 ft | 488 kts | 55° |
| 2026-04-29 19:52 | 22.88331 | 56.08376 | 36760 ft | 488 kts | 55° |
| 2026-04-29 19:52 | 22.92045 | 56.14533 | 36759 ft | 488 kts | 55° |
| 2026-04-29 19:53 | 22.95739 | 56.20657 | 36760 ft | 488 kts | 55° |
| 2026-04-29 19:53 | 22.99457 | 56.26824 | 36624 ft | 489 kts | 55° |
| 2026-04-29 19:53 | 23.01321 | 56.29919 | 36374 ft | 488 kts | 55° |
| 2026-04-29 19:54 | 23.04913 | 56.36165 | 35874 ft | 488 kts | 57° |
| 2026-04-29 19:54 | 23.06677 | 56.39320 | 35624 ft | 489 kts | 57° |
| 2026-04-29 19:54 | 23.08435 | 56.42465 | 35078 ft | 485 kts | 57° |
| 2026-04-29 19:55 | 23.10185 | 56.45597 | 34298 ft | 484 kts | 56° |
| 2026-04-29 19:55 | 23.11923 | 56.48708 | 33776 ft | 477 kts | 56° |
| 2026-04-29 19:55 | 23.13634 | 56.51769 | 33290 ft | 470 kts | 56° |
| 2026-04-29 19:55 | 23.15319 | 56.54784 | 32805 ft | 464 kts | 56° |
| 2026-04-29 19:56 | 23.16985 | 56.57765 | 32327 ft | 458 kts | 56° |
| 2026-04-29 19:56 | 23.18629 | 56.60707 | 31854 ft | 453 kts | 56° |
| 2026-04-29 19:56 | 23.20259 | 56.63623 | 31384 ft | 449 kts | 56° |
| 2026-04-29 19:56 | 23.21873 | 56.66509 | 30920 ft | 444 kts | 56° |
| 2026-04-29 19:57 | 23.23473 | 56.69372 | 30460 ft | 442 kts | 56° |
| 2026-04-29 19:57 | 23.25050 | 56.72193 | 30005 ft | 441 kts | 56° |
| 2026-04-29 19:57 | 23.26636 | 56.75031 | 29547 ft | 438 kts | 56° |
| 2026-04-29 19:57 | 23.28210 | 56.77846 | 29091 ft | 434 kts | 57° |
| 2026-04-29 19:58 | 23.29771 | 56.80639 | 28639 ft | 431 kts | 57° |
| 2026-04-29 19:58 | 23.31323 | 56.83418 | 28189 ft | 428 kts | 57° |
| 2026-04-29 19:58 | 23.32808 | 56.86212 | 27741 ft | 425 kts | 61° |
| 2026-04-29 19:58 | 23.33994 | 56.89153 | 27298 ft | 423 kts | 69° |
| 2026-04-29 19:59 | 23.34829 | 56.92204 | 26848 ft | 420 kts | 77° |
| 2026-04-29 19:59 | 23.35436 | 56.95297 | 26413 ft | 416 kts | 78° |
| 2026-04-29 19:59 | 23.36028 | 56.98360 | 25986 ft | 412 kts | 79° |
| 2026-04-29 19:59 | 23.36610 | 57.01403 | 25557 ft | 409 kts | 79° |
| 2026-04-29 20:00 | 23.37183 | 57.04423 | 25132 ft | 406 kts | 79° |
| 2026-04-29 20:00 | 23.37772 | 57.07429 | 24523 ft | 410 kts | 78° |
| 2026-04-29 20:00 | 23.38450 | 57.10470 | 23957 ft | 412 kts | 77° |
| 2026-04-29 20:00 | 23.39139 | 57.13511 | 23879 ft | 416 kts | 77° |
| 2026-04-29 20:01 | 23.39832 | 57.16576 | 23596 ft | 417 kts | 77° |
| 2026-04-29 20:01 | 23.40519 | 57.19621 | 23219 ft | 412 kts | 77° |
| 2026-04-29 20:01 | 23.41200 | 57.22646 | 22849 ft | 409 kts | 77° |
| 2026-04-29 20:01 | 23.41872 | 57.25644 | 22626 ft | 407 kts | 77° |
| 2026-04-29 20:02 | 23.42540 | 57.28627 | 21694 ft | 416 kts | 77° |
| 2026-04-29 20:02 | 23.43240 | 57.31756 | 20844 ft | 421 kts | 77° |
| 2026-04-29 20:02 | 23.43915 | 57.34777 | 20375 ft | 414 kts | 77° |
| 2026-04-29 20:02 | 23.44373 | 57.36830 | 19997 ft | 412 kts | 77° |
| 2026-04-29 20:03 | 23.45259 | 57.40810 | 19298 ft | 406 kts | 77° |
| 2026-04-29 20:03 | 23.45920 | 57.43780 | 18774 ft | 401 kts | 77° |
| 2026-04-29 20:03 | 23.46572 | 57.46719 | 18314 ft | 396 kts | 77° |
| 2026-04-29 20:03 | 23.47212 | 57.49606 | 17927 ft | 388 kts | 77° |
| 2026-04-29 20:04 | 23.47837 | 57.52437 | 17601 ft | 380 kts | 77° |
| 2026-04-29 20:04 | 23.48421 | 57.55214 | 17281 ft | 372 kts | 80° |
| 2026-04-29 20:04 | 23.48709 | 57.57989 | 16969 ft | 365 kts | 88° |
| 2026-04-29 20:04 | 23.48728 | 57.60732 | 16666 ft | 362 kts | 90° |
| 2026-04-29 20:05 | 23.48723 | 57.63463 | 16360 ft | 360 kts | 90° |
| 2026-04-29 20:05 | 23.48710 | 57.66187 | 16056 ft | 358 kts | 91° |
| 2026-04-29 20:05 | 23.48693 | 57.68893 | 15754 ft | 356 kts | 91° |
| 2026-04-29 20:05 | 23.48672 | 57.71576 | 15454 ft | 354 kts | 90° |
| 2026-04-29 20:06 | 23.48649 | 57.74251 | 15156 ft | 352 kts | 90° |
| 2026-04-29 20:06 | 23.48625 | 57.76911 | 14859 ft | 350 kts | 90° |
| 2026-04-29 20:06 | 23.48599 | 57.79551 | 14564 ft | 348 kts | 90° |
| 2026-04-29 20:06 | 23.48572 | 57.82177 | 14271 ft | 346 kts | 90° |
| 2026-04-29 20:07 | 23.48544 | 57.84788 | 13979 ft | 344 kts | 90° |
| 2026-04-29 20:07 | 23.48516 | 57.87383 | 13689 ft | 342 kts | 90° |
| 2026-04-29 20:07 | 23.48476 | 57.89933 | 13405 ft | 340 kts | 91° |
| 2026-04-29 20:07 | 23.48431 | 57.92501 | 13118 ft | 338 kts | 91° |
| 2026-04-29 20:08 | 23.48388 | 57.95054 | 12833 ft | 336 kts | 91° |
| 2026-04-29 20:08 | 23.48359 | 57.96768 | 12641 ft | 334 kts | 91° |
| 2026-04-29 20:08 | 23.48302 | 58.00108 | 12268 ft | 332 kts | 91° |
| 2026-04-29 20:08 | 23.48259 | 58.02617 | 11994 ft | 330 kts | 91° |
| 2026-04-29 20:09 | 23.48215 | 58.05109 | 11897 ft | 329 kts | 91° |
| 2026-04-29 20:09 | 23.48172 | 58.07603 | 11665 ft | 328 kts | 91° |
| 2026-04-29 20:09 | 23.48128 | 58.10072 | 11390 ft | 325 kts | 91° |
| 2026-04-29 20:09 | 23.48084 | 58.12535 | 11115 ft | 324 kts | 91° |
| 2026-04-29 20:10 | 23.48040 | 58.14970 | 10904 ft | 317 kts | 91° |
| 2026-04-29 20:10 | 23.47996 | 58.17325 | 10810 ft | 305 kts | 91° |
| 2026-04-29 20:10 | 23.47954 | 58.19631 | 10409 ft | 304 kts | 91° |
| 2026-04-29 20:10 | 23.47911 | 58.21916 | 10097 ft | 300 kts | 91° |
| 2026-04-29 20:11 | 23.47879 | 58.24172 | 9814 ft | 296 kts | 89° |
| 2026-04-29 20:11 | 23.47984 | 58.26367 | 9550 ft | 294 kts | 85° |
| 2026-04-29 20:11 | 23.48162 | 58.28590 | 9303 ft | 294 kts | 84° |
| 2026-04-29 20:11 | 23.48349 | 58.30801 | 9056 ft | 293 kts | 84° |
| 2026-04-29 20:12 | 23.48539 | 58.33005 | 8809 ft | 292 kts | 84° |
| 2026-04-29 20:12 | 23.48729 | 58.35204 | 8563 ft | 291 kts | 84° |
| 2026-04-29 20:12 | 23.48920 | 58.37394 | 8318 ft | 290 kts | 84° |
| 2026-04-29 20:12 | 23.49111 | 58.39580 | 8073 ft | 289 kts | 84° |
| 2026-04-29 20:13 | 23.49301 | 58.41758 | 7829 ft | 289 kts | 84° |
| 2026-04-29 20:13 | 23.49426 | 58.43196 | 7668 ft | 288 kts | 84° |
| 2026-04-29 20:13 | 23.49954 | 58.46030 | 7340 ft | 285 kts | 64° |
| 2026-04-29 20:13 | 23.51135 | 58.47746 | 7128 ft | 285 kts | 42° |
| 2026-04-29 20:14 | 23.52843 | 58.48839 | 6709 ft | 284 kts | 19° |
| 2026-04-29 20:14 | 23.54693 | 58.49468 | 6187 ft | 283 kts | 16° |
| 2026-04-29 20:14 | 23.56561 | 58.50091 | 5687 ft | 278 kts | 16° |
| 2026-04-29 20:14 | 23.58401 | 58.50708 | 5185 ft | 274 kts | 14° |
| 2026-04-29 20:15 | 23.60269 | 58.50828 | 4676 ft | 269 kts | 350° |
| 2026-04-29 20:15 | 23.61983 | 58.50088 | 4174 ft | 264 kts | 326° |
| 2026-04-29 20:15 | 23.63222 | 58.48644 | 3672 ft | 261 kts | 301° |
| 2026-04-29 20:15 | 23.63767 | 58.46774 | 3170 ft | 260 kts | 276° |
| 2026-04-29 20:16 | 23.63520 | 58.44841 | 2680 ft | 259 kts | 251° |
| 2026-04-29 20:16 | 23.62883 | 58.43025 | 2290 ft | 254 kts | 252° |
| 2026-04-29 20:16 | 23.62400 | 58.41189 | 1888 ft | 249 kts | 257° |
| 2026-04-29 20:16 | 23.62034 | 58.39382 | 1670 ft | 237 kts | 258° |
| 2026-04-29 20:17 | 23.61720 | 58.37677 | 1530 ft | 220 kts | 261° |
| 2026-04-29 20:17 | 23.61510 | 58.36132 | 1271 ft | 195 kts | 263° |
| 2026-04-29 20:17 | 23.61355 | 58.34758 | 1018 ft | 170 kts | 264° |
| 2026-04-29 20:17 | 23.61239 | 58.33547 | 795 ft | 154 kts | 263° |
| 2026-04-29 20:18 | 23.61135 | 58.32403 | 593 ft | 150 kts | 263° |
| 2026-04-29 20:18 | 23.61038 | 58.31279 | 411 ft | 148 kts | 263° |
| 2026-04-29 20:18 | 23.60945 | 58.30162 | 222 ft | 147 kts | 263° |
| 2026-04-29 20:18 | 23.60855 | 58.29060 | 64 ft | 138 kts | 264° |
| 2026-04-29 20:19 | 23.60785 | 58.28222 | 64 ft | 85 kts | 264° |
| 2026-04-29 20:19 | 23.60740 | 58.27673 | 64 ft | 63 kts | 265° |
| 2026-04-29 20:19 | 23.60707 | 58.27256 | 64 ft | 47 kts | 265° |
| 2026-04-29 20:19 | 23.60635 | 58.27025 | 64 ft | 27 kts | 239° |
| 2026-04-29 20:20 | 23.60523 | 58.26859 | 64 ft | 28 kts | 231° |
| 2026-04-29 20:20 | 23.60422 | 58.26786 | 64 ft | 11 kts | 167° |
| 2026-04-29 20:20 | 23.60406 | 58.26857 | 64 ft | 13 kts | 83° |
| 2026-04-29 20:20 | 23.60418 | 58.27000 | 64 ft | 23 kts | 85° |
| 2026-04-29 20:21 | 23.60432 | 58.27175 | 64 ft | 23 kts | 85° |
| 2026-04-29 20:21 | 23.60446 | 58.27346 | 64 ft | 22 kts | 85° |
| 2026-04-29 20:21 | 23.60458 | 58.27513 | 64 ft | 22 kts | 84° |
| 2026-04-29 20:21 | 23.60472 | 58.27668 | 64 ft | 18 kts | 85° |
| 2026-04-29 20:22 | 23.60424 | 58.27762 | 64 ft | 15 kts | 135° |
| 2026-04-29 20:22 | 23.60354 | 58.27837 | 64 ft | 14 kts | 136° |
| 2026-04-29 20:22 | 23.60329 | 58.27925 | 64 ft | 12 kts | 84° |
| 2026-04-29 20:22 | 23.60337 | 58.28027 | 64 ft | 15 kts | 85° |
| 2026-04-29 20:23 | 23.60346 | 58.28145 | 64 ft | 16 kts | 85° |
| 2026-04-29 20:23 | 23.60355 | 58.28262 | 64 ft | 15 kts | 85° |
| 2026-04-29 20:23 | 23.60363 | 58.28368 | 64 ft | 5 kts | 87° |
| 2026-04-29 20:23 | 23.60347 | 58.28379 | 64 ft | 2 kts | 188° |
| 2026-04-29 20:24 | 23.60331 | 58.28369 | 64 ft | 4 kts | 214° |
| 2026-04-29 20:24 | 23.60296 | 58.28360 | 64 ft | 6 kts | 186° |
| 2026-04-29 20:24 | 23.60259 | 58.28359 | 64 ft | 5 kts | 167° |
| 2026-04-29 20:24 | 23.60225 | 58.28367 | 64 ft | 5 kts | 173° |
| 2026-04-29 20:25 | 23.60186 | 58.28373 | 64 ft | 6 kts | 172° |
| 2026-04-29 20:25 | 23.60150 | 58.28378 | 64 ft | 5 kts | 173° |
| 2026-04-29 20:25 | 23.60124 | 58.28382 | 64 ft | 0 kts | 172° |